<?xml version="1.0" encoding="UTF-8" standalone="no" ?>
<gpx xmlns="http://www.topografix.com/GPX/1/1" xmlns:xsi="http://www.w3.org/2001/XMLSchema-instance" xsi:schemaLocation="http://www.topografix.com/GPX/1/1 http://www.topografix.com/GPX/1/1/gpx.xsd" version="1.1" creator="VisuGPX - https://www.visugpx.com">
  <metadata>
    <name>Rocles - Col du Merle.gpx</name>
    <desc><![CDATA[Joli tour en VTT. Montée sur piste avec portage à la fin. Descente très technique via une calade souvent défoncée, marches et quelques switchback.]]></desc>
  </metadata>
  <trk>
    <name><![CDATA[11112019_140801.gpx]]></name>
    <trkseg>
      <trkpt lat="44.5723" lon="4.22323">
        <ele>553.8</ele>
        <time>2019-11-11T13:08:01.000Z</time>
      </trkpt>
      <trkpt lat="44.57249" lon="4.22328">
        <ele>556.4</ele>
        <time>2019-11-11T13:08:14.000Z</time>
      </trkpt>
      <trkpt lat="44.57267" lon="4.22333">
        <ele>556.2</ele>
        <time>2019-11-11T13:08:19.000Z</time>
      </trkpt>
      <trkpt lat="44.57285" lon="4.22344">
        <ele>557</ele>
        <time>2019-11-11T13:08:24.000Z</time>
      </trkpt>
      <trkpt lat="44.57301" lon="4.22343">
        <ele>556.8</ele>
        <time>2019-11-11T13:08:28.000Z</time>
      </trkpt>
      <trkpt lat="44.57317" lon="4.22327">
        <ele>556.2</ele>
        <time>2019-11-11T13:08:32.000Z</time>
      </trkpt>
      <trkpt lat="44.57331" lon="4.22308">
        <ele>555.6</ele>
        <time>2019-11-11T13:08:35.000Z</time>
      </trkpt>
      <trkpt lat="44.57345" lon="4.22291">
        <ele>555</ele>
        <time>2019-11-11T13:08:38.000Z</time>
      </trkpt>
      <trkpt lat="44.57349" lon="4.22287">
        <ele>554.6</ele>
        <time>2019-11-11T13:08:39.000Z</time>
      </trkpt>
      <trkpt lat="44.57361" lon="4.2229">
        <ele>550.8</ele>
        <time>2019-11-11T13:09:47.000Z</time>
      </trkpt>
      <trkpt lat="44.57364" lon="4.22316">
        <ele>550.6</ele>
        <time>2019-11-11T13:09:53.000Z</time>
      </trkpt>
      <trkpt lat="44.57367" lon="4.22343">
        <ele>550</ele>
        <time>2019-11-11T13:09:57.000Z</time>
      </trkpt>
      <trkpt lat="44.57369" lon="4.2235">
        <ele>549.8</ele>
        <time>2019-11-11T13:09:58.000Z</time>
      </trkpt>
      <trkpt lat="44.57376" lon="4.22368">
        <ele>549.2</ele>
        <time>2019-11-11T13:10:01.000Z</time>
      </trkpt>
      <trkpt lat="44.57389" lon="4.22389">
        <ele>548.2</ele>
        <time>2019-11-11T13:10:06.000Z</time>
      </trkpt>
      <trkpt lat="44.57393" lon="4.22405">
        <ele>546.8</ele>
        <time>2019-11-11T13:10:14.000Z</time>
      </trkpt>
      <trkpt lat="44.574" lon="4.22431">
        <ele>545.4</ele>
        <time>2019-11-11T13:10:21.000Z</time>
      </trkpt>
      <trkpt lat="44.57406" lon="4.22454">
        <ele>543.8</ele>
        <time>2019-11-11T13:10:29.000Z</time>
      </trkpt>
      <trkpt lat="44.57415" lon="4.22477">
        <ele>542.8</ele>
        <time>2019-11-11T13:10:34.000Z</time>
      </trkpt>
      <trkpt lat="44.57416" lon="4.22505">
        <ele>542</ele>
        <time>2019-11-11T13:10:37.000Z</time>
      </trkpt>
      <trkpt lat="44.57416" lon="4.22534">
        <ele>540.4</ele>
        <time>2019-11-11T13:10:41.000Z</time>
      </trkpt>
      <trkpt lat="44.57422" lon="4.22562">
        <ele>537.8</ele>
        <time>2019-11-11T13:10:47.000Z</time>
      </trkpt>
      <trkpt lat="44.57422" lon="4.22593">
        <ele>536.6</ele>
        <time>2019-11-11T13:10:51.000Z</time>
      </trkpt>
      <trkpt lat="44.57424" lon="4.22601">
        <ele>536.2</ele>
        <time>2019-11-11T13:10:52.000Z</time>
      </trkpt>
      <trkpt lat="44.57439" lon="4.22621">
        <ele>534.6</ele>
        <time>2019-11-11T13:10:57.000Z</time>
      </trkpt>
      <trkpt lat="44.57453" lon="4.22627">
        <ele>533.4</ele>
        <time>2019-11-11T13:11:01.000Z</time>
      </trkpt>
      <trkpt lat="44.57471" lon="4.22639">
        <ele>530.4</ele>
        <time>2019-11-11T13:11:09.000Z</time>
      </trkpt>
      <trkpt lat="44.57488" lon="4.22652">
        <ele>527.4</ele>
        <time>2019-11-11T13:11:17.000Z</time>
      </trkpt>
      <trkpt lat="44.57499" lon="4.22675">
        <ele>523.4</ele>
        <time>2019-11-11T13:11:25.000Z</time>
      </trkpt>
      <trkpt lat="44.57507" lon="4.227">
        <ele>520.2</ele>
        <time>2019-11-11T13:11:31.000Z</time>
      </trkpt>
      <trkpt lat="44.57519" lon="4.22721">
        <ele>518.8</ele>
        <time>2019-11-11T13:11:45.000Z</time>
      </trkpt>
      <trkpt lat="44.57527" lon="4.22743">
        <ele>516.4</ele>
        <time>2019-11-11T13:12:22.000Z</time>
      </trkpt>
      <trkpt lat="44.5753" lon="4.22768">
        <ele>517.2</ele>
        <time>2019-11-11T13:12:32.000Z</time>
      </trkpt>
      <trkpt lat="44.57529" lon="4.22793">
        <ele>519</ele>
        <time>2019-11-11T13:12:44.000Z</time>
      </trkpt>
      <trkpt lat="44.57525" lon="4.22819">
        <ele>523</ele>
        <time>2019-11-11T13:12:56.000Z</time>
      </trkpt>
      <trkpt lat="44.57524" lon="4.22843">
        <ele>541.2</ele>
        <time>2019-11-11T13:13:32.000Z</time>
      </trkpt>
      <trkpt lat="44.57524" lon="4.22866">
        <ele>541.6</ele>
        <time>2019-11-11T13:14:10.000Z</time>
      </trkpt>
      <trkpt lat="44.57535" lon="4.22886">
        <ele>541.2</ele>
        <time>2019-11-11T13:14:31.000Z</time>
      </trkpt>
      <trkpt lat="44.5754" lon="4.22911">
        <ele>541.6</ele>
        <time>2019-11-11T13:15:20.000Z</time>
      </trkpt>
      <trkpt lat="44.57545" lon="4.22937">
        <ele>544</ele>
        <time>2019-11-11T13:15:30.000Z</time>
      </trkpt>
      <trkpt lat="44.57552" lon="4.22962">
        <ele>548.8</ele>
        <time>2019-11-11T13:15:40.000Z</time>
      </trkpt>
      <trkpt lat="44.57558" lon="4.22986">
        <ele>554.2</ele>
        <time>2019-11-11T13:15:49.000Z</time>
      </trkpt>
      <trkpt lat="44.57561" lon="4.23012">
        <ele>554.8</ele>
        <time>2019-11-11T13:15:58.000Z</time>
      </trkpt>
      <trkpt lat="44.57566" lon="4.23039">
        <ele>557.6</ele>
        <time>2019-11-11T13:16:08.000Z</time>
      </trkpt>
      <trkpt lat="44.57575" lon="4.23062">
        <ele>562.4</ele>
        <time>2019-11-11T13:16:18.000Z</time>
      </trkpt>
      <trkpt lat="44.57593" lon="4.23067">
        <ele>565.8</ele>
        <time>2019-11-11T13:16:27.000Z</time>
      </trkpt>
      <trkpt lat="44.57611" lon="4.23074">
        <ele>570.4</ele>
        <time>2019-11-11T13:16:37.000Z</time>
      </trkpt>
      <trkpt lat="44.57621" lon="4.23092">
        <ele>577.8</ele>
        <time>2019-11-11T13:16:47.000Z</time>
      </trkpt>
      <trkpt lat="44.57627" lon="4.23119">
        <ele>581</ele>
        <time>2019-11-11T13:16:55.000Z</time>
      </trkpt>
      <trkpt lat="44.57635" lon="4.23144">
        <ele>582.4</ele>
        <time>2019-11-11T13:17:02.000Z</time>
      </trkpt>
      <trkpt lat="44.57643" lon="4.23171">
        <ele>585.4</ele>
        <time>2019-11-11T13:17:09.000Z</time>
      </trkpt>
      <trkpt lat="44.57647" lon="4.23198">
        <ele>586.2</ele>
        <time>2019-11-11T13:17:16.000Z</time>
      </trkpt>
      <trkpt lat="44.57658" lon="4.23222">
        <ele>585.4</ele>
        <time>2019-11-11T13:17:23.000Z</time>
      </trkpt>
      <trkpt lat="44.57674" lon="4.23233">
        <ele>583</ele>
        <time>2019-11-11T13:17:30.000Z</time>
      </trkpt>
      <trkpt lat="44.57693" lon="4.23238">
        <ele>582</ele>
        <time>2019-11-11T13:17:37.000Z</time>
      </trkpt>
      <trkpt lat="44.57711" lon="4.23242">
        <ele>582.2</ele>
        <time>2019-11-11T13:17:44.000Z</time>
      </trkpt>
      <trkpt lat="44.5773" lon="4.23248">
        <ele>582.6</ele>
        <time>2019-11-11T13:17:52.000Z</time>
      </trkpt>
      <trkpt lat="44.57748" lon="4.23247">
        <ele>583.2</ele>
        <time>2019-11-11T13:18:00.000Z</time>
      </trkpt>
      <trkpt lat="44.57766" lon="4.23238">
        <ele>582.4</ele>
        <time>2019-11-11T13:18:07.000Z</time>
      </trkpt>
      <trkpt lat="44.57781" lon="4.23221">
        <ele>578</ele>
        <time>2019-11-11T13:18:15.000Z</time>
      </trkpt>
      <trkpt lat="44.57797" lon="4.23205">
        <ele>572.6</ele>
        <time>2019-11-11T13:18:23.000Z</time>
      </trkpt>
      <trkpt lat="44.57811" lon="4.23188">
        <ele>568.4</ele>
        <time>2019-11-11T13:18:30.000Z</time>
      </trkpt>
      <trkpt lat="44.57824" lon="4.23168">
        <ele>565.8</ele>
        <time>2019-11-11T13:18:38.000Z</time>
      </trkpt>
      <trkpt lat="44.57834" lon="4.23146">
        <ele>568.4</ele>
        <time>2019-11-11T13:18:45.000Z</time>
      </trkpt>
      <trkpt lat="44.57844" lon="4.23125">
        <ele>570.6</ele>
        <time>2019-11-11T13:18:51.000Z</time>
      </trkpt>
      <trkpt lat="44.57855" lon="4.231">
        <ele>567.4</ele>
        <time>2019-11-11T13:18:58.000Z</time>
      </trkpt>
      <trkpt lat="44.57871" lon="4.23091">
        <ele>569.4</ele>
        <time>2019-11-11T13:19:04.000Z</time>
      </trkpt>
      <trkpt lat="44.57888" lon="4.23103">
        <ele>576.6</ele>
        <time>2019-11-11T13:19:12.000Z</time>
      </trkpt>
      <trkpt lat="44.57905" lon="4.23101">
        <ele>581.8</ele>
        <time>2019-11-11T13:19:21.000Z</time>
      </trkpt>
      <trkpt lat="44.57906" lon="4.23106">
        <ele>583</ele>
        <time>2019-11-11T13:19:24.000Z</time>
      </trkpt>
      <trkpt lat="44.57909" lon="4.23134">
        <ele>580.6</ele>
        <time>2019-11-11T13:19:34.000Z</time>
      </trkpt>
      <trkpt lat="44.57914" lon="4.23162">
        <ele>593.8</ele>
        <time>2019-11-11T13:19:45.000Z</time>
      </trkpt>
      <trkpt lat="44.57908" lon="4.23191">
        <ele>597.8</ele>
        <time>2019-11-11T13:19:54.000Z</time>
      </trkpt>
      <trkpt lat="44.57906" lon="4.2321">
        <ele>598.2</ele>
        <time>2019-11-11T13:20:00.000Z</time>
      </trkpt>
      <trkpt lat="44.57917" lon="4.23218">
        <ele>603.8</ele>
        <time>2019-11-11T13:20:07.000Z</time>
      </trkpt>
      <trkpt lat="44.57932" lon="4.23206">
        <ele>608.8</ele>
        <time>2019-11-11T13:20:16.000Z</time>
      </trkpt>
      <trkpt lat="44.57942" lon="4.23184">
        <ele>613.4</ele>
        <time>2019-11-11T13:20:28.000Z</time>
      </trkpt>
      <trkpt lat="44.57955" lon="4.23165">
        <ele>615.6</ele>
        <time>2019-11-11T13:20:38.000Z</time>
      </trkpt>
      <trkpt lat="44.57969" lon="4.23147">
        <ele>619</ele>
        <time>2019-11-11T13:20:49.000Z</time>
      </trkpt>
      <trkpt lat="44.5798" lon="4.23126">
        <ele>617.4</ele>
        <time>2019-11-11T13:21:00.000Z</time>
      </trkpt>
      <trkpt lat="44.5799" lon="4.23104">
        <ele>614</ele>
        <time>2019-11-11T13:21:12.000Z</time>
      </trkpt>
      <trkpt lat="44.58005" lon="4.2309">
        <ele>612.6</ele>
        <time>2019-11-11T13:21:22.000Z</time>
      </trkpt>
      <trkpt lat="44.58006" lon="4.23091">
        <ele>612.8</ele>
        <time>2019-11-11T13:21:23.000Z</time>
      </trkpt>
      <trkpt lat="44.58007" lon="4.23116">
        <ele>616.2</ele>
        <time>2019-11-11T13:21:36.000Z</time>
      </trkpt>
      <trkpt lat="44.58008" lon="4.23142">
        <ele>615.4</ele>
        <time>2019-11-11T13:21:49.000Z</time>
      </trkpt>
      <trkpt lat="44.58015" lon="4.23166">
        <ele>616.8</ele>
        <time>2019-11-11T13:22:01.000Z</time>
      </trkpt>
      <trkpt lat="44.58021" lon="4.2319">
        <ele>615.6</ele>
        <time>2019-11-11T13:22:10.000Z</time>
      </trkpt>
      <trkpt lat="44.58027" lon="4.23214">
        <ele>612</ele>
        <time>2019-11-11T13:22:20.000Z</time>
      </trkpt>
      <trkpt lat="44.58025" lon="4.23239">
        <ele>617.4</ele>
        <time>2019-11-11T13:22:32.000Z</time>
      </trkpt>
      <trkpt lat="44.58023" lon="4.23266">
        <ele>617.6</ele>
        <time>2019-11-11T13:22:42.000Z</time>
      </trkpt>
      <trkpt lat="44.5803" lon="4.2329">
        <ele>619.8</ele>
        <time>2019-11-11T13:22:53.000Z</time>
      </trkpt>
      <trkpt lat="44.58044" lon="4.23308">
        <ele>626</ele>
        <time>2019-11-11T13:23:03.000Z</time>
      </trkpt>
      <trkpt lat="44.58062" lon="4.23315">
        <ele>638</ele>
        <time>2019-11-11T13:23:15.000Z</time>
      </trkpt>
      <trkpt lat="44.58079" lon="4.23327">
        <ele>648.8</ele>
        <time>2019-11-11T13:23:26.000Z</time>
      </trkpt>
      <trkpt lat="44.58094" lon="4.23341">
        <ele>655</ele>
        <time>2019-11-11T13:23:37.000Z</time>
      </trkpt>
      <trkpt lat="44.58111" lon="4.23353">
        <ele>659</ele>
        <time>2019-11-11T13:23:49.000Z</time>
      </trkpt>
      <trkpt lat="44.58128" lon="4.23366">
        <ele>660</ele>
        <time>2019-11-11T13:24:01.000Z</time>
      </trkpt>
      <trkpt lat="44.58145" lon="4.23378">
        <ele>676.8</ele>
        <time>2019-11-11T13:24:13.000Z</time>
      </trkpt>
      <trkpt lat="44.58157" lon="4.23383">
        <ele>684.8</ele>
        <time>2019-11-11T13:24:21.000Z</time>
      </trkpt>
      <trkpt lat="44.58158" lon="4.23373">
        <ele>693.4</ele>
        <time>2019-11-11T13:24:31.000Z</time>
      </trkpt>
      <trkpt lat="44.58136" lon="4.23374">
        <ele>662.6</ele>
        <time>2019-11-11T13:24:46.000Z</time>
      </trkpt>
      <trkpt lat="44.58126" lon="4.23353">
        <ele>642.2</ele>
        <time>2019-11-11T13:25:00.000Z</time>
      </trkpt>
      <trkpt lat="44.5811" lon="4.23336">
        <ele>643</ele>
        <time>2019-11-11T13:25:12.000Z</time>
      </trkpt>
      <trkpt lat="44.58114" lon="4.23311">
        <ele>640</ele>
        <time>2019-11-11T13:25:20.000Z</time>
      </trkpt>
      <trkpt lat="44.58123" lon="4.23288">
        <ele>634.2</ele>
        <time>2019-11-11T13:25:34.000Z</time>
      </trkpt>
      <trkpt lat="44.58135" lon="4.23287">
        <ele>604.4</ele>
        <time>2019-11-11T13:26:19.000Z</time>
      </trkpt>
      <trkpt lat="44.58127" lon="4.23289">
        <ele>607</ele>
        <time>2019-11-11T13:27:39.000Z</time>
      </trkpt>
      <trkpt lat="44.58132" lon="4.23291">
        <ele>634.4</ele>
        <time>2019-11-11T13:29:06.000Z</time>
      </trkpt>
      <trkpt lat="44.58141" lon="4.23314">
        <ele>637.2</ele>
        <time>2019-11-11T13:29:19.000Z</time>
      </trkpt>
      <trkpt lat="44.58155" lon="4.23334">
        <ele>641.2</ele>
        <time>2019-11-11T13:29:30.000Z</time>
      </trkpt>
      <trkpt lat="44.58169" lon="4.23352">
        <ele>649.2</ele>
        <time>2019-11-11T13:29:41.000Z</time>
      </trkpt>
      <trkpt lat="44.58171" lon="4.23354">
        <ele>651.8</ele>
        <time>2019-11-11T13:29:43.000Z</time>
      </trkpt>
      <trkpt lat="44.58188" lon="4.23364">
        <ele>665.8</ele>
        <time>2019-11-11T13:29:50.000Z</time>
      </trkpt>
      <trkpt lat="44.58206" lon="4.23374">
        <ele>683.6</ele>
        <time>2019-11-11T13:29:59.000Z</time>
      </trkpt>
      <trkpt lat="44.58223" lon="4.23384">
        <ele>694.8</ele>
        <time>2019-11-11T13:30:08.000Z</time>
      </trkpt>
      <trkpt lat="44.58232" lon="4.23407">
        <ele>696.4</ele>
        <time>2019-11-11T13:30:19.000Z</time>
      </trkpt>
      <trkpt lat="44.58233" lon="4.23433">
        <ele>693.8</ele>
        <time>2019-11-11T13:30:29.000Z</time>
      </trkpt>
      <trkpt lat="44.58228" lon="4.23462">
        <ele>692.4</ele>
        <time>2019-11-11T13:30:35.000Z</time>
      </trkpt>
      <trkpt lat="44.58226" lon="4.23488">
        <ele>694.8</ele>
        <time>2019-11-11T13:30:43.000Z</time>
      </trkpt>
      <trkpt lat="44.58226" lon="4.23515">
        <ele>696</ele>
        <time>2019-11-11T13:30:55.000Z</time>
      </trkpt>
      <trkpt lat="44.58231" lon="4.23541">
        <ele>692</ele>
        <time>2019-11-11T13:31:03.000Z</time>
      </trkpt>
      <trkpt lat="44.58235" lon="4.23568">
        <ele>694.2</ele>
        <time>2019-11-11T13:31:12.000Z</time>
      </trkpt>
      <trkpt lat="44.5823" lon="4.23594">
        <ele>691.2</ele>
        <time>2019-11-11T13:31:19.000Z</time>
      </trkpt>
      <trkpt lat="44.5822" lon="4.23617">
        <ele>706</ele>
        <time>2019-11-11T13:31:30.000Z</time>
      </trkpt>
      <trkpt lat="44.58205" lon="4.23637">
        <ele>714.6</ele>
        <time>2019-11-11T13:31:39.000Z</time>
      </trkpt>
      <trkpt lat="44.58192" lon="4.23654">
        <ele>722.4</ele>
        <time>2019-11-11T13:31:47.000Z</time>
      </trkpt>
      <trkpt lat="44.58178" lon="4.23676">
        <ele>721.4</ele>
        <time>2019-11-11T13:31:56.000Z</time>
      </trkpt>
      <trkpt lat="44.58165" lon="4.23697">
        <ele>698.4</ele>
        <time>2019-11-11T13:32:03.000Z</time>
      </trkpt>
      <trkpt lat="44.58148" lon="4.2371">
        <ele>687.4</ele>
        <time>2019-11-11T13:32:10.000Z</time>
      </trkpt>
      <trkpt lat="44.5813" lon="4.23722">
        <ele>685.4</ele>
        <time>2019-11-11T13:32:17.000Z</time>
      </trkpt>
      <trkpt lat="44.58114" lon="4.23739">
        <ele>684.8</ele>
        <time>2019-11-11T13:32:24.000Z</time>
      </trkpt>
      <trkpt lat="44.581" lon="4.2376">
        <ele>685.8</ele>
        <time>2019-11-11T13:32:32.000Z</time>
      </trkpt>
      <trkpt lat="44.5809" lon="4.23781">
        <ele>683.4</ele>
        <time>2019-11-11T13:32:38.000Z</time>
      </trkpt>
      <trkpt lat="44.58087" lon="4.23807">
        <ele>678.6</ele>
        <time>2019-11-11T13:32:45.000Z</time>
      </trkpt>
      <trkpt lat="44.5809" lon="4.23833">
        <ele>675.6</ele>
        <time>2019-11-11T13:32:53.000Z</time>
      </trkpt>
      <trkpt lat="44.58099" lon="4.23857">
        <ele>676</ele>
        <time>2019-11-11T13:33:02.000Z</time>
      </trkpt>
      <trkpt lat="44.58116" lon="4.23868">
        <ele>685</ele>
        <time>2019-11-11T13:33:09.000Z</time>
      </trkpt>
      <trkpt lat="44.58135" lon="4.23871">
        <ele>693.8</ele>
        <time>2019-11-11T13:33:15.000Z</time>
      </trkpt>
      <trkpt lat="44.58155" lon="4.23878">
        <ele>703.6</ele>
        <time>2019-11-11T13:33:22.000Z</time>
      </trkpt>
      <trkpt lat="44.58172" lon="4.2389">
        <ele>710</ele>
        <time>2019-11-11T13:33:29.000Z</time>
      </trkpt>
      <trkpt lat="44.58189" lon="4.23901">
        <ele>712.2</ele>
        <time>2019-11-11T13:33:37.000Z</time>
      </trkpt>
      <trkpt lat="44.58207" lon="4.23914">
        <ele>715.2</ele>
        <time>2019-11-11T13:33:46.000Z</time>
      </trkpt>
      <trkpt lat="44.58225" lon="4.23928">
        <ele>723.4</ele>
        <time>2019-11-11T13:33:54.000Z</time>
      </trkpt>
      <trkpt lat="44.5824" lon="4.23948">
        <ele>722</ele>
        <time>2019-11-11T13:34:01.000Z</time>
      </trkpt>
      <trkpt lat="44.58248" lon="4.23972">
        <ele>721.2</ele>
        <time>2019-11-11T13:34:07.000Z</time>
      </trkpt>
      <trkpt lat="44.5826" lon="4.23993">
        <ele>717.6</ele>
        <time>2019-11-11T13:34:12.000Z</time>
      </trkpt>
      <trkpt lat="44.5827" lon="4.24018">
        <ele>714.2</ele>
        <time>2019-11-11T13:34:17.000Z</time>
      </trkpt>
      <trkpt lat="44.58288" lon="4.24033">
        <ele>714.6</ele>
        <time>2019-11-11T13:34:22.000Z</time>
      </trkpt>
      <trkpt lat="44.5831" lon="4.24042">
        <ele>713.4</ele>
        <time>2019-11-11T13:34:27.000Z</time>
      </trkpt>
      <trkpt lat="44.58331" lon="4.24048">
        <ele>712.6</ele>
        <time>2019-11-11T13:34:31.000Z</time>
      </trkpt>
      <trkpt lat="44.58352" lon="4.24051">
        <ele>709.2</ele>
        <time>2019-11-11T13:34:35.000Z</time>
      </trkpt>
      <trkpt lat="44.58371" lon="4.24052">
        <ele>703.6</ele>
        <time>2019-11-11T13:34:39.000Z</time>
      </trkpt>
      <trkpt lat="44.58386" lon="4.24046">
        <ele>697</ele>
        <time>2019-11-11T13:34:43.000Z</time>
      </trkpt>
      <trkpt lat="44.58402" lon="4.24032">
        <ele>690.4</ele>
        <time>2019-11-11T13:34:47.000Z</time>
      </trkpt>
      <trkpt lat="44.58423" lon="4.24022">
        <ele>689.8</ele>
        <time>2019-11-11T13:34:51.000Z</time>
      </trkpt>
      <trkpt lat="44.58443" lon="4.24015">
        <ele>688.4</ele>
        <time>2019-11-11T13:34:56.000Z</time>
      </trkpt>
      <trkpt lat="44.58449" lon="4.2402">
        <ele>689.8</ele>
        <time>2019-11-11T13:34:59.000Z</time>
      </trkpt>
      <trkpt lat="44.58452" lon="4.24031">
        <ele>690</ele>
        <time>2019-11-11T13:35:04.000Z</time>
      </trkpt>
      <trkpt lat="44.58457" lon="4.24059">
        <ele>694.8</ele>
        <time>2019-11-11T13:35:15.000Z</time>
      </trkpt>
      <trkpt lat="44.58463" lon="4.24085">
        <ele>697</ele>
        <time>2019-11-11T13:35:26.000Z</time>
      </trkpt>
      <trkpt lat="44.58465" lon="4.24112">
        <ele>704.8</ele>
        <time>2019-11-11T13:35:40.000Z</time>
      </trkpt>
      <trkpt lat="44.5846" lon="4.24137">
        <ele>711</ele>
        <time>2019-11-11T13:35:52.000Z</time>
      </trkpt>
      <trkpt lat="44.58452" lon="4.2416">
        <ele>717.2</ele>
        <time>2019-11-11T13:36:04.000Z</time>
      </trkpt>
      <trkpt lat="44.58441" lon="4.2418">
        <ele>722.2</ele>
        <time>2019-11-11T13:36:16.000Z</time>
      </trkpt>
      <trkpt lat="44.58432" lon="4.24204">
        <ele>724.4</ele>
        <time>2019-11-11T13:36:27.000Z</time>
      </trkpt>
      <trkpt lat="44.58422" lon="4.24226">
        <ele>728.4</ele>
        <time>2019-11-11T13:36:38.000Z</time>
      </trkpt>
      <trkpt lat="44.58409" lon="4.24247">
        <ele>727.2</ele>
        <time>2019-11-11T13:36:48.000Z</time>
      </trkpt>
      <trkpt lat="44.58401" lon="4.2427">
        <ele>728</ele>
        <time>2019-11-11T13:36:59.000Z</time>
      </trkpt>
      <trkpt lat="44.58396" lon="4.24294">
        <ele>726.2</ele>
        <time>2019-11-11T13:37:08.000Z</time>
      </trkpt>
      <trkpt lat="44.58392" lon="4.24318">
        <ele>724</ele>
        <time>2019-11-11T13:37:19.000Z</time>
      </trkpt>
      <trkpt lat="44.58385" lon="4.24342">
        <ele>723.4</ele>
        <time>2019-11-11T13:37:29.000Z</time>
      </trkpt>
      <trkpt lat="44.58379" lon="4.24368">
        <ele>727.4</ele>
        <time>2019-11-11T13:37:43.000Z</time>
      </trkpt>
      <trkpt lat="44.58372" lon="4.24393">
        <ele>726</ele>
        <time>2019-11-11T13:37:55.000Z</time>
      </trkpt>
      <trkpt lat="44.58364" lon="4.24417">
        <ele>729.4</ele>
        <time>2019-11-11T13:38:06.000Z</time>
      </trkpt>
      <trkpt lat="44.58356" lon="4.24441">
        <ele>735.4</ele>
        <time>2019-11-11T13:38:19.000Z</time>
      </trkpt>
      <trkpt lat="44.58344" lon="4.24463">
        <ele>741</ele>
        <time>2019-11-11T13:38:30.000Z</time>
      </trkpt>
      <trkpt lat="44.58332" lon="4.24481">
        <ele>744.8</ele>
        <time>2019-11-11T13:38:43.000Z</time>
      </trkpt>
      <trkpt lat="44.58321" lon="4.24503">
        <ele>743.8</ele>
        <time>2019-11-11T13:38:54.000Z</time>
      </trkpt>
      <trkpt lat="44.58316" lon="4.24528">
        <ele>727</ele>
        <time>2019-11-11T13:39:00.000Z</time>
      </trkpt>
      <trkpt lat="44.5832" lon="4.24553">
        <ele>726.6</ele>
        <time>2019-11-11T13:39:10.000Z</time>
      </trkpt>
      <trkpt lat="44.58327" lon="4.24578">
        <ele>729.6</ele>
        <time>2019-11-11T13:39:21.000Z</time>
      </trkpt>
      <trkpt lat="44.58333" lon="4.24603">
        <ele>733.4</ele>
        <time>2019-11-11T13:39:31.000Z</time>
      </trkpt>
      <trkpt lat="44.58341" lon="4.24627">
        <ele>738</ele>
        <time>2019-11-11T13:39:41.000Z</time>
      </trkpt>
      <trkpt lat="44.58341" lon="4.24628">
        <ele>739</ele>
        <time>2019-11-11T13:39:42.000Z</time>
      </trkpt>
      <trkpt lat="44.58336" lon="4.24637">
        <ele>746.8</ele>
        <time>2019-11-11T13:39:49.000Z</time>
      </trkpt>
      <trkpt lat="44.58322" lon="4.24656">
        <ele>755.8</ele>
        <time>2019-11-11T13:40:01.000Z</time>
      </trkpt>
      <trkpt lat="44.58308" lon="4.24672">
        <ele>765</ele>
        <time>2019-11-11T13:40:16.000Z</time>
      </trkpt>
      <trkpt lat="44.58291" lon="4.24681">
        <ele>782</ele>
        <time>2019-11-11T13:40:33.000Z</time>
      </trkpt>
      <trkpt lat="44.58276" lon="4.247">
        <ele>758.8</ele>
        <time>2019-11-11T13:40:43.000Z</time>
      </trkpt>
      <trkpt lat="44.58261" lon="4.24717">
        <ele>737.4</ele>
        <time>2019-11-11T13:40:51.000Z</time>
      </trkpt>
      <trkpt lat="44.58243" lon="4.24729">
        <ele>737</ele>
        <time>2019-11-11T13:41:02.000Z</time>
      </trkpt>
      <trkpt lat="44.58237" lon="4.24752">
        <ele>742.2</ele>
        <time>2019-11-11T13:41:12.000Z</time>
      </trkpt>
      <trkpt lat="44.58255" lon="4.24756">
        <ele>748.2</ele>
        <time>2019-11-11T13:41:22.000Z</time>
      </trkpt>
      <trkpt lat="44.58273" lon="4.24752">
        <ele>753.6</ele>
        <time>2019-11-11T13:41:31.000Z</time>
      </trkpt>
      <trkpt lat="44.58293" lon="4.24751">
        <ele>754.8</ele>
        <time>2019-11-11T13:41:40.000Z</time>
      </trkpt>
      <trkpt lat="44.58311" lon="4.24755">
        <ele>755.4</ele>
        <time>2019-11-11T13:41:48.000Z</time>
      </trkpt>
      <trkpt lat="44.58328" lon="4.24766">
        <ele>758.2</ele>
        <time>2019-11-11T13:41:56.000Z</time>
      </trkpt>
      <trkpt lat="44.58347" lon="4.24773">
        <ele>760</ele>
        <time>2019-11-11T13:42:05.000Z</time>
      </trkpt>
      <trkpt lat="44.58365" lon="4.24777">
        <ele>764.4</ele>
        <time>2019-11-11T13:42:13.000Z</time>
      </trkpt>
      <trkpt lat="44.58384" lon="4.24788">
        <ele>768.8</ele>
        <time>2019-11-11T13:42:22.000Z</time>
      </trkpt>
      <trkpt lat="44.58403" lon="4.24796">
        <ele>773.8</ele>
        <time>2019-11-11T13:42:30.000Z</time>
      </trkpt>
      <trkpt lat="44.5842" lon="4.24806">
        <ele>778.2</ele>
        <time>2019-11-11T13:42:37.000Z</time>
      </trkpt>
      <trkpt lat="44.58438" lon="4.24816">
        <ele>777.6</ele>
        <time>2019-11-11T13:42:47.000Z</time>
      </trkpt>
      <trkpt lat="44.58456" lon="4.24819">
        <ele>776.4</ele>
        <time>2019-11-11T13:42:55.000Z</time>
      </trkpt>
      <trkpt lat="44.58476" lon="4.24823">
        <ele>772.6</ele>
        <time>2019-11-11T13:43:02.000Z</time>
      </trkpt>
      <trkpt lat="44.58496" lon="4.24824">
        <ele>774</ele>
        <time>2019-11-11T13:43:09.000Z</time>
      </trkpt>
      <trkpt lat="44.58515" lon="4.24826">
        <ele>771.4</ele>
        <time>2019-11-11T13:43:16.000Z</time>
      </trkpt>
      <trkpt lat="44.58535" lon="4.24828">
        <ele>768</ele>
        <time>2019-11-11T13:43:22.000Z</time>
      </trkpt>
      <trkpt lat="44.58555" lon="4.24831">
        <ele>768.8</ele>
        <time>2019-11-11T13:43:29.000Z</time>
      </trkpt>
      <trkpt lat="44.58562" lon="4.24854">
        <ele>759.4</ele>
        <time>2019-11-11T13:43:35.000Z</time>
      </trkpt>
      <trkpt lat="44.58566" lon="4.24883">
        <ele>755.2</ele>
        <time>2019-11-11T13:43:41.000Z</time>
      </trkpt>
      <trkpt lat="44.58568" lon="4.24911">
        <ele>755.4</ele>
        <time>2019-11-11T13:43:47.000Z</time>
      </trkpt>
      <trkpt lat="44.58565" lon="4.24939">
        <ele>753.2</ele>
        <time>2019-11-11T13:43:53.000Z</time>
      </trkpt>
      <trkpt lat="44.58562" lon="4.24967">
        <ele>753.4</ele>
        <time>2019-11-11T13:43:59.000Z</time>
      </trkpt>
      <trkpt lat="44.58563" lon="4.24993">
        <ele>755.4</ele>
        <time>2019-11-11T13:44:05.000Z</time>
      </trkpt>
      <trkpt lat="44.58564" lon="4.25019">
        <ele>754.8</ele>
        <time>2019-11-11T13:44:11.000Z</time>
      </trkpt>
      <trkpt lat="44.58565" lon="4.25045">
        <ele>755.8</ele>
        <time>2019-11-11T13:44:17.000Z</time>
      </trkpt>
      <trkpt lat="44.58569" lon="4.25073">
        <ele>757.2</ele>
        <time>2019-11-11T13:44:24.000Z</time>
      </trkpt>
      <trkpt lat="44.58576" lon="4.251">
        <ele>759</ele>
        <time>2019-11-11T13:44:32.000Z</time>
      </trkpt>
      <trkpt lat="44.5858" lon="4.25102">
        <ele>759</ele>
        <time>2019-11-11T13:44:34.000Z</time>
      </trkpt>
      <trkpt lat="44.58598" lon="4.25102">
        <ele>762</ele>
        <time>2019-11-11T13:44:41.000Z</time>
      </trkpt>
      <trkpt lat="44.58615" lon="4.25088">
        <ele>764.6</ele>
        <time>2019-11-11T13:44:48.000Z</time>
      </trkpt>
      <trkpt lat="44.5863" lon="4.25073">
        <ele>761.8</ele>
        <time>2019-11-11T13:44:54.000Z</time>
      </trkpt>
      <trkpt lat="44.58646" lon="4.25054">
        <ele>761</ele>
        <time>2019-11-11T13:44:59.000Z</time>
      </trkpt>
      <trkpt lat="44.58655" lon="4.25032">
        <ele>760.2</ele>
        <time>2019-11-11T13:45:04.000Z</time>
      </trkpt>
      <trkpt lat="44.58662" lon="4.25006">
        <ele>757.2</ele>
        <time>2019-11-11T13:45:10.000Z</time>
      </trkpt>
      <trkpt lat="44.58666" lon="4.24978">
        <ele>747.2</ele>
        <time>2019-11-11T13:45:17.000Z</time>
      </trkpt>
      <trkpt lat="44.58673" lon="4.24953">
        <ele>746.4</ele>
        <time>2019-11-11T13:45:22.000Z</time>
      </trkpt>
      <trkpt lat="44.58684" lon="4.24926">
        <ele>741.6</ele>
        <time>2019-11-11T13:45:29.000Z</time>
      </trkpt>
      <trkpt lat="44.58696" lon="4.249">
        <ele>747.8</ele>
        <time>2019-11-11T13:45:33.000Z</time>
      </trkpt>
      <trkpt lat="44.58712" lon="4.24887">
        <ele>753.2</ele>
        <time>2019-11-11T13:45:37.000Z</time>
      </trkpt>
      <trkpt lat="44.58728" lon="4.24875">
        <ele>754.2</ele>
        <time>2019-11-11T13:45:41.000Z</time>
      </trkpt>
      <trkpt lat="44.58745" lon="4.24858">
        <ele>755.2</ele>
        <time>2019-11-11T13:45:45.000Z</time>
      </trkpt>
      <trkpt lat="44.58761" lon="4.24835">
        <ele>755.2</ele>
        <time>2019-11-11T13:45:49.000Z</time>
      </trkpt>
      <trkpt lat="44.58774" lon="4.24816">
        <ele>752.6</ele>
        <time>2019-11-11T13:45:52.000Z</time>
      </trkpt>
      <trkpt lat="44.58788" lon="4.24796">
        <ele>751.8</ele>
        <time>2019-11-11T13:45:55.000Z</time>
      </trkpt>
      <trkpt lat="44.58791" lon="4.24789">
        <ele>751.6</ele>
        <time>2019-11-11T13:45:56.000Z</time>
      </trkpt>
      <trkpt lat="44.58799" lon="4.24764">
        <ele>748.4</ele>
        <time>2019-11-11T13:46:00.000Z</time>
      </trkpt>
      <trkpt lat="44.58799" lon="4.24734">
        <ele>746.6</ele>
        <time>2019-11-11T13:46:04.000Z</time>
      </trkpt>
      <trkpt lat="44.58798" lon="4.24711">
        <ele>747.4</ele>
        <time>2019-11-11T13:46:07.000Z</time>
      </trkpt>
      <trkpt lat="44.58801" lon="4.24681">
        <ele>748.8</ele>
        <time>2019-11-11T13:46:11.000Z</time>
      </trkpt>
      <trkpt lat="44.58803" lon="4.24652">
        <ele>752.4</ele>
        <time>2019-11-11T13:46:15.000Z</time>
      </trkpt>
      <trkpt lat="44.58806" lon="4.24626">
        <ele>753.4</ele>
        <time>2019-11-11T13:46:19.000Z</time>
      </trkpt>
      <trkpt lat="44.58811" lon="4.24599">
        <ele>752.6</ele>
        <time>2019-11-11T13:46:23.000Z</time>
      </trkpt>
      <trkpt lat="44.58815" lon="4.24572">
        <ele>752.6</ele>
        <time>2019-11-11T13:46:27.000Z</time>
      </trkpt>
      <trkpt lat="44.58819" lon="4.24543">
        <ele>754</ele>
        <time>2019-11-11T13:46:31.000Z</time>
      </trkpt>
      <trkpt lat="44.58824" lon="4.24516">
        <ele>754.8</ele>
        <time>2019-11-11T13:46:35.000Z</time>
      </trkpt>
      <trkpt lat="44.58825" lon="4.24494">
        <ele>755.6</ele>
        <time>2019-11-11T13:46:38.000Z</time>
      </trkpt>
      <trkpt lat="44.58818" lon="4.24467">
        <ele>761.2</ele>
        <time>2019-11-11T13:46:42.000Z</time>
      </trkpt>
      <trkpt lat="44.58814" lon="4.24455">
        <ele>761.8</ele>
        <time>2019-11-11T13:46:44.000Z</time>
      </trkpt>
      <trkpt lat="44.58805" lon="4.24431">
        <ele>761.8</ele>
        <time>2019-11-11T13:46:48.000Z</time>
      </trkpt>
      <trkpt lat="44.58804" lon="4.24425">
        <ele>762</ele>
        <time>2019-11-11T13:46:49.000Z</time>
      </trkpt>
      <trkpt lat="44.58804" lon="4.24399">
        <ele>760.8</ele>
        <time>2019-11-11T13:46:53.000Z</time>
      </trkpt>
      <trkpt lat="44.58807" lon="4.24386">
        <ele>760.2</ele>
        <time>2019-11-11T13:46:55.000Z</time>
      </trkpt>
      <trkpt lat="44.5881" lon="4.24361">
        <ele>758</ele>
        <time>2019-11-11T13:46:59.000Z</time>
      </trkpt>
      <trkpt lat="44.58818" lon="4.24335">
        <ele>747</ele>
        <time>2019-11-11T13:47:05.000Z</time>
      </trkpt>
      <trkpt lat="44.58834" lon="4.24319">
        <ele>738.2</ele>
        <time>2019-11-11T13:47:12.000Z</time>
      </trkpt>
      <trkpt lat="44.58847" lon="4.24298">
        <ele>733.8</ele>
        <time>2019-11-11T13:47:17.000Z</time>
      </trkpt>
      <trkpt lat="44.58852" lon="4.24271">
        <ele>731.4</ele>
        <time>2019-11-11T13:47:22.000Z</time>
      </trkpt>
      <trkpt lat="44.58846" lon="4.24244">
        <ele>731.6</ele>
        <time>2019-11-11T13:47:26.000Z</time>
      </trkpt>
      <trkpt lat="44.58845" lon="4.24219">
        <ele>735.4</ele>
        <time>2019-11-11T13:47:30.000Z</time>
      </trkpt>
      <trkpt lat="44.58853" lon="4.24192">
        <ele>737.8</ele>
        <time>2019-11-11T13:47:35.000Z</time>
      </trkpt>
      <trkpt lat="44.58864" lon="4.24162">
        <ele>738.6</ele>
        <time>2019-11-11T13:47:40.000Z</time>
      </trkpt>
      <trkpt lat="44.58873" lon="4.24142">
        <ele>737.4</ele>
        <time>2019-11-11T13:47:43.000Z</time>
      </trkpt>
      <trkpt lat="44.58885" lon="4.24115">
        <ele>736.4</ele>
        <time>2019-11-11T13:47:47.000Z</time>
      </trkpt>
      <trkpt lat="44.58894" lon="4.24089">
        <ele>733.2</ele>
        <time>2019-11-11T13:47:51.000Z</time>
      </trkpt>
      <trkpt lat="44.58897" lon="4.24074">
        <ele>730.6</ele>
        <time>2019-11-11T13:47:53.000Z</time>
      </trkpt>
      <trkpt lat="44.589" lon="4.24055">
        <ele>732.6</ele>
        <time>2019-11-11T13:47:55.000Z</time>
      </trkpt>
      <trkpt lat="44.58915" lon="4.24031">
        <ele>735</ele>
        <time>2019-11-11T13:47:59.000Z</time>
      </trkpt>
      <trkpt lat="44.58919" lon="4.24027">
        <ele>734.2</ele>
        <time>2019-11-11T13:48:00.000Z</time>
      </trkpt>
      <trkpt lat="44.58923" lon="4.24023">
        <ele>735.4</ele>
        <time>2019-11-11T13:48:01.000Z</time>
      </trkpt>
      <trkpt lat="44.58939" lon="4.24004">
        <ele>733.6</ele>
        <time>2019-11-11T13:48:05.000Z</time>
      </trkpt>
      <trkpt lat="44.58952" lon="4.23977">
        <ele>733.4</ele>
        <time>2019-11-11T13:48:09.000Z</time>
      </trkpt>
      <trkpt lat="44.58959" lon="4.23963">
        <ele>731.6</ele>
        <time>2019-11-11T13:48:11.000Z</time>
      </trkpt>
      <trkpt lat="44.5897" lon="4.23939">
        <ele>727.4</ele>
        <time>2019-11-11T13:48:14.000Z</time>
      </trkpt>
      <trkpt lat="44.58981" lon="4.23916">
        <ele>727.2</ele>
        <time>2019-11-11T13:48:17.000Z</time>
      </trkpt>
      <trkpt lat="44.58986" lon="4.23907">
        <ele>728.8</ele>
        <time>2019-11-11T13:48:18.000Z</time>
      </trkpt>
      <trkpt lat="44.59004" lon="4.23889">
        <ele>732.6</ele>
        <time>2019-11-11T13:48:22.000Z</time>
      </trkpt>
      <trkpt lat="44.59019" lon="4.23867">
        <ele>737.4</ele>
        <time>2019-11-11T13:48:26.000Z</time>
      </trkpt>
      <trkpt lat="44.59022" lon="4.23862">
        <ele>737.6</ele>
        <time>2019-11-11T13:48:27.000Z</time>
      </trkpt>
      <trkpt lat="44.59041" lon="4.23851">
        <ele>739.6</ele>
        <time>2019-11-11T13:48:31.000Z</time>
      </trkpt>
      <trkpt lat="44.59062" lon="4.23854">
        <ele>747.2</ele>
        <time>2019-11-11T13:48:36.000Z</time>
      </trkpt>
      <trkpt lat="44.59082" lon="4.23857">
        <ele>752.4</ele>
        <time>2019-11-11T13:48:40.000Z</time>
      </trkpt>
      <trkpt lat="44.59103" lon="4.2385">
        <ele>755</ele>
        <time>2019-11-11T13:48:44.000Z</time>
      </trkpt>
      <trkpt lat="44.59113" lon="4.23843">
        <ele>755.8</ele>
        <time>2019-11-11T13:48:46.000Z</time>
      </trkpt>
      <trkpt lat="44.59129" lon="4.23834">
        <ele>757.6</ele>
        <time>2019-11-11T13:48:49.000Z</time>
      </trkpt>
      <trkpt lat="44.59152" lon="4.23831">
        <ele>759</ele>
        <time>2019-11-11T13:48:52.000Z</time>
      </trkpt>
      <trkpt lat="44.59163" lon="4.23858">
        <ele>762.8</ele>
        <time>2019-11-11T13:48:58.000Z</time>
      </trkpt>
      <trkpt lat="44.59164" lon="4.23887">
        <ele>768.6</ele>
        <time>2019-11-11T13:49:02.000Z</time>
      </trkpt>
      <trkpt lat="44.59164" lon="4.23893">
        <ele>770.2</ele>
        <time>2019-11-11T13:49:03.000Z</time>
      </trkpt>
      <trkpt lat="44.59163" lon="4.2392">
        <ele>773.8</ele>
        <time>2019-11-11T13:49:08.000Z</time>
      </trkpt>
      <trkpt lat="44.59162" lon="4.23948">
        <ele>773.8</ele>
        <time>2019-11-11T13:49:14.000Z</time>
      </trkpt>
      <trkpt lat="44.59158" lon="4.23974">
        <ele>771</ele>
        <time>2019-11-11T13:49:18.000Z</time>
      </trkpt>
      <trkpt lat="44.59152" lon="4.24003">
        <ele>766.2</ele>
        <time>2019-11-11T13:49:22.000Z</time>
      </trkpt>
      <trkpt lat="44.59148" lon="4.24032">
        <ele>757</ele>
        <time>2019-11-11T13:49:27.000Z</time>
      </trkpt>
      <trkpt lat="44.59148" lon="4.24058">
        <ele>748.8</ele>
        <time>2019-11-11T13:49:33.000Z</time>
      </trkpt>
      <trkpt lat="44.59155" lon="4.24084">
        <ele>744.2</ele>
        <time>2019-11-11T13:49:40.000Z</time>
      </trkpt>
      <trkpt lat="44.5917" lon="4.24103">
        <ele>743.8</ele>
        <time>2019-11-11T13:49:46.000Z</time>
      </trkpt>
      <trkpt lat="44.59193" lon="4.24111">
        <ele>751.2</ele>
        <time>2019-11-11T13:49:51.000Z</time>
      </trkpt>
      <trkpt lat="44.59213" lon="4.24115">
        <ele>761.2</ele>
        <time>2019-11-11T13:49:56.000Z</time>
      </trkpt>
      <trkpt lat="44.59231" lon="4.24118">
        <ele>768.2</ele>
        <time>2019-11-11T13:50:00.000Z</time>
      </trkpt>
      <trkpt lat="44.5925" lon="4.24122">
        <ele>774.8</ele>
        <time>2019-11-11T13:50:04.000Z</time>
      </trkpt>
      <trkpt lat="44.5927" lon="4.24126">
        <ele>781</ele>
        <time>2019-11-11T13:50:08.000Z</time>
      </trkpt>
      <trkpt lat="44.5929" lon="4.24132">
        <ele>788.2</ele>
        <time>2019-11-11T13:50:13.000Z</time>
      </trkpt>
      <trkpt lat="44.59312" lon="4.24135">
        <ele>791.8</ele>
        <time>2019-11-11T13:50:17.000Z</time>
      </trkpt>
      <trkpt lat="44.59334" lon="4.24139">
        <ele>796.4</ele>
        <time>2019-11-11T13:50:22.000Z</time>
      </trkpt>
      <trkpt lat="44.59352" lon="4.24138">
        <ele>797.2</ele>
        <time>2019-11-11T13:50:26.000Z</time>
      </trkpt>
      <trkpt lat="44.59373" lon="4.24136">
        <ele>795.8</ele>
        <time>2019-11-11T13:50:32.000Z</time>
      </trkpt>
      <trkpt lat="44.59391" lon="4.24131">
        <ele>788.4</ele>
        <time>2019-11-11T13:50:38.000Z</time>
      </trkpt>
      <trkpt lat="44.59412" lon="4.24131">
        <ele>783.2</ele>
        <time>2019-11-11T13:50:44.000Z</time>
      </trkpt>
      <trkpt lat="44.59431" lon="4.24131">
        <ele>778.2</ele>
        <time>2019-11-11T13:50:50.000Z</time>
      </trkpt>
      <trkpt lat="44.59451" lon="4.24123">
        <ele>772.4</ele>
        <time>2019-11-11T13:50:56.000Z</time>
      </trkpt>
      <trkpt lat="44.59468" lon="4.24111">
        <ele>767.2</ele>
        <time>2019-11-11T13:51:01.000Z</time>
      </trkpt>
      <trkpt lat="44.59487" lon="4.24101">
        <ele>765</ele>
        <time>2019-11-11T13:51:05.000Z</time>
      </trkpt>
      <trkpt lat="44.5951" lon="4.241">
        <ele>766.4</ele>
        <time>2019-11-11T13:51:09.000Z</time>
      </trkpt>
      <trkpt lat="44.59528" lon="4.24103">
        <ele>765.8</ele>
        <time>2019-11-11T13:51:12.000Z</time>
      </trkpt>
      <trkpt lat="44.59546" lon="4.24104">
        <ele>763.2</ele>
        <time>2019-11-11T13:51:15.000Z</time>
      </trkpt>
      <trkpt lat="44.5957" lon="4.24099">
        <ele>759</ele>
        <time>2019-11-11T13:51:18.000Z</time>
      </trkpt>
      <trkpt lat="44.59591" lon="4.24093">
        <ele>752.4</ele>
        <time>2019-11-11T13:51:21.000Z</time>
      </trkpt>
      <trkpt lat="44.59611" lon="4.24082">
        <ele>745</ele>
        <time>2019-11-11T13:51:24.000Z</time>
      </trkpt>
      <trkpt lat="44.59633" lon="4.24066">
        <ele>739.8</ele>
        <time>2019-11-11T13:51:27.000Z</time>
      </trkpt>
      <trkpt lat="44.59657" lon="4.24052">
        <ele>734.4</ele>
        <time>2019-11-11T13:51:30.000Z</time>
      </trkpt>
      <trkpt lat="44.59675" lon="4.24034">
        <ele>726.6</ele>
        <time>2019-11-11T13:51:33.000Z</time>
      </trkpt>
      <trkpt lat="44.59693" lon="4.24013">
        <ele>719</ele>
        <time>2019-11-11T13:51:36.000Z</time>
      </trkpt>
      <trkpt lat="44.59708" lon="4.23989">
        <ele>709.4</ele>
        <time>2019-11-11T13:51:39.000Z</time>
      </trkpt>
      <trkpt lat="44.59715" lon="4.23971">
        <ele>706</ele>
        <time>2019-11-11T13:51:41.000Z</time>
      </trkpt>
      <trkpt lat="44.59719" lon="4.23943">
        <ele>700.4</ele>
        <time>2019-11-11T13:51:44.000Z</time>
      </trkpt>
      <trkpt lat="44.59715" lon="4.23917">
        <ele>693.2</ele>
        <time>2019-11-11T13:51:47.000Z</time>
      </trkpt>
      <trkpt lat="44.59727" lon="4.23902">
        <ele>689.8</ele>
        <time>2019-11-11T13:51:52.000Z</time>
      </trkpt>
      <trkpt lat="44.59736" lon="4.239">
        <ele>696.4</ele>
        <time>2019-11-11T13:51:55.000Z</time>
      </trkpt>
      <trkpt lat="44.59756" lon="4.239">
        <ele>718.4</ele>
        <time>2019-11-11T13:52:03.000Z</time>
      </trkpt>
      <trkpt lat="44.59776" lon="4.239">
        <ele>735.4</ele>
        <time>2019-11-11T13:52:13.000Z</time>
      </trkpt>
      <trkpt lat="44.59793" lon="4.23891">
        <ele>741.8</ele>
        <time>2019-11-11T13:52:19.000Z</time>
      </trkpt>
      <trkpt lat="44.59812" lon="4.23884">
        <ele>747.4</ele>
        <time>2019-11-11T13:52:26.000Z</time>
      </trkpt>
      <trkpt lat="44.5983" lon="4.23881">
        <ele>755.8</ele>
        <time>2019-11-11T13:52:33.000Z</time>
      </trkpt>
      <trkpt lat="44.5985" lon="4.23877">
        <ele>762.2</ele>
        <time>2019-11-11T13:52:40.000Z</time>
      </trkpt>
      <trkpt lat="44.59867" lon="4.23866">
        <ele>766.4</ele>
        <time>2019-11-11T13:52:47.000Z</time>
      </trkpt>
      <trkpt lat="44.59881" lon="4.23849">
        <ele>759.8</ele>
        <time>2019-11-11T13:52:59.000Z</time>
      </trkpt>
      <trkpt lat="44.59898" lon="4.23837">
        <ele>757.8</ele>
        <time>2019-11-11T13:53:10.000Z</time>
      </trkpt>
      <trkpt lat="44.59918" lon="4.2383">
        <ele>767</ele>
        <time>2019-11-11T13:53:18.000Z</time>
      </trkpt>
      <trkpt lat="44.59935" lon="4.23821">
        <ele>770.8</ele>
        <time>2019-11-11T13:53:27.000Z</time>
      </trkpt>
      <trkpt lat="44.59953" lon="4.23812">
        <ele>777.4</ele>
        <time>2019-11-11T13:53:36.000Z</time>
      </trkpt>
      <trkpt lat="44.59968" lon="4.23798">
        <ele>775.8</ele>
        <time>2019-11-11T13:53:45.000Z</time>
      </trkpt>
      <trkpt lat="44.59982" lon="4.23781">
        <ele>771.4</ele>
        <time>2019-11-11T13:53:54.000Z</time>
      </trkpt>
      <trkpt lat="44.59998" lon="4.23766">
        <ele>767</ele>
        <time>2019-11-11T13:54:01.000Z</time>
      </trkpt>
      <trkpt lat="44.60013" lon="4.23749">
        <ele>760.6</ele>
        <time>2019-11-11T13:54:09.000Z</time>
      </trkpt>
      <trkpt lat="44.60027" lon="4.23729">
        <ele>762</ele>
        <time>2019-11-11T13:54:19.000Z</time>
      </trkpt>
      <trkpt lat="44.60035" lon="4.23703">
        <ele>764.6</ele>
        <time>2019-11-11T13:54:30.000Z</time>
      </trkpt>
      <trkpt lat="44.60033" lon="4.23678">
        <ele>760</ele>
        <time>2019-11-11T13:54:41.000Z</time>
      </trkpt>
      <trkpt lat="44.60025" lon="4.23655">
        <ele>758.2</ele>
        <time>2019-11-11T13:54:51.000Z</time>
      </trkpt>
      <trkpt lat="44.60015" lon="4.23632">
        <ele>761.8</ele>
        <time>2019-11-11T13:54:59.000Z</time>
      </trkpt>
      <trkpt lat="44.60002" lon="4.23609">
        <ele>763.6</ele>
        <time>2019-11-11T13:55:07.000Z</time>
      </trkpt>
      <trkpt lat="44.5999" lon="4.23586">
        <ele>767</ele>
        <time>2019-11-11T13:55:14.000Z</time>
      </trkpt>
      <trkpt lat="44.59979" lon="4.23566">
        <ele>767.4</ele>
        <time>2019-11-11T13:55:21.000Z</time>
      </trkpt>
      <trkpt lat="44.59969" lon="4.23543">
        <ele>768.2</ele>
        <time>2019-11-11T13:55:27.000Z</time>
      </trkpt>
      <trkpt lat="44.59972" lon="4.23525">
        <ele>765.2</ele>
        <time>2019-11-11T13:55:33.000Z</time>
      </trkpt>
      <trkpt lat="44.59982" lon="4.23522">
        <ele>766.6</ele>
        <time>2019-11-11T13:55:37.000Z</time>
      </trkpt>
      <trkpt lat="44.60002" lon="4.2351">
        <ele>771.6</ele>
        <time>2019-11-11T13:55:43.000Z</time>
      </trkpt>
      <trkpt lat="44.60013" lon="4.23491">
        <ele>772.6</ele>
        <time>2019-11-11T13:55:49.000Z</time>
      </trkpt>
      <trkpt lat="44.60025" lon="4.23469">
        <ele>768.6</ele>
        <time>2019-11-11T13:55:56.000Z</time>
      </trkpt>
      <trkpt lat="44.60036" lon="4.23448">
        <ele>763.6</ele>
        <time>2019-11-11T13:56:02.000Z</time>
      </trkpt>
      <trkpt lat="44.60054" lon="4.23443">
        <ele>768.2</ele>
        <time>2019-11-11T13:56:08.000Z</time>
      </trkpt>
      <trkpt lat="44.60058" lon="4.23446">
        <ele>772.8</ele>
        <time>2019-11-11T13:56:10.000Z</time>
      </trkpt>
      <trkpt lat="44.60068" lon="4.2347">
        <ele>777.8</ele>
        <time>2019-11-11T13:56:19.000Z</time>
      </trkpt>
      <trkpt lat="44.60082" lon="4.23488">
        <ele>779.8</ele>
        <time>2019-11-11T13:56:25.000Z</time>
      </trkpt>
      <trkpt lat="44.60096" lon="4.23504">
        <ele>785</ele>
        <time>2019-11-11T13:56:31.000Z</time>
      </trkpt>
      <trkpt lat="44.60112" lon="4.23518">
        <ele>791.2</ele>
        <time>2019-11-11T13:56:37.000Z</time>
      </trkpt>
      <trkpt lat="44.6013" lon="4.2353">
        <ele>794.2</ele>
        <time>2019-11-11T13:56:43.000Z</time>
      </trkpt>
      <trkpt lat="44.60148" lon="4.23543">
        <ele>798.2</ele>
        <time>2019-11-11T13:56:50.000Z</time>
      </trkpt>
      <trkpt lat="44.60165" lon="4.23558">
        <ele>799</ele>
        <time>2019-11-11T13:56:57.000Z</time>
      </trkpt>
      <trkpt lat="44.60183" lon="4.23574">
        <ele>797.4</ele>
        <time>2019-11-11T13:57:04.000Z</time>
      </trkpt>
      <trkpt lat="44.60196" lon="4.23592">
        <ele>798.2</ele>
        <time>2019-11-11T13:57:10.000Z</time>
      </trkpt>
      <trkpt lat="44.60211" lon="4.2361">
        <ele>798.8</ele>
        <time>2019-11-11T13:57:17.000Z</time>
      </trkpt>
      <trkpt lat="44.60223" lon="4.23632">
        <ele>798.2</ele>
        <time>2019-11-11T13:57:24.000Z</time>
      </trkpt>
      <trkpt lat="44.60234" lon="4.23656">
        <ele>797.8</ele>
        <time>2019-11-11T13:57:30.000Z</time>
      </trkpt>
      <trkpt lat="44.60246" lon="4.23677">
        <ele>792.8</ele>
        <time>2019-11-11T13:57:36.000Z</time>
      </trkpt>
      <trkpt lat="44.60258" lon="4.23698">
        <ele>792.4</ele>
        <time>2019-11-11T13:57:42.000Z</time>
      </trkpt>
      <trkpt lat="44.60271" lon="4.2372">
        <ele>790</ele>
        <time>2019-11-11T13:57:48.000Z</time>
      </trkpt>
      <trkpt lat="44.60286" lon="4.23736">
        <ele>791.4</ele>
        <time>2019-11-11T13:57:54.000Z</time>
      </trkpt>
      <trkpt lat="44.60301" lon="4.23755">
        <ele>791.6</ele>
        <time>2019-11-11T13:58:00.000Z</time>
      </trkpt>
      <trkpt lat="44.60315" lon="4.23772">
        <ele>795.8</ele>
        <time>2019-11-11T13:58:06.000Z</time>
      </trkpt>
      <trkpt lat="44.60328" lon="4.23793">
        <ele>799.4</ele>
        <time>2019-11-11T13:58:12.000Z</time>
      </trkpt>
      <trkpt lat="44.60338" lon="4.23817">
        <ele>800.4</ele>
        <time>2019-11-11T13:58:19.000Z</time>
      </trkpt>
      <trkpt lat="44.60349" lon="4.23842">
        <ele>796.8</ele>
        <time>2019-11-11T13:58:26.000Z</time>
      </trkpt>
      <trkpt lat="44.60365" lon="4.23856">
        <ele>791.8</ele>
        <time>2019-11-11T13:58:32.000Z</time>
      </trkpt>
      <trkpt lat="44.60385" lon="4.23862">
        <ele>788.6</ele>
        <time>2019-11-11T13:58:38.000Z</time>
      </trkpt>
      <trkpt lat="44.60404" lon="4.23866">
        <ele>787</ele>
        <time>2019-11-11T13:58:43.000Z</time>
      </trkpt>
      <trkpt lat="44.60426" lon="4.23868">
        <ele>786</ele>
        <time>2019-11-11T13:58:48.000Z</time>
      </trkpt>
      <trkpt lat="44.60434" lon="4.23871">
        <ele>786</ele>
        <time>2019-11-11T13:58:50.000Z</time>
      </trkpt>
      <trkpt lat="44.6045" lon="4.23884">
        <ele>786.8</ele>
        <time>2019-11-11T13:58:54.000Z</time>
      </trkpt>
      <trkpt lat="44.60462" lon="4.23895">
        <ele>787.8</ele>
        <time>2019-11-11T13:58:57.000Z</time>
      </trkpt>
      <trkpt lat="44.60479" lon="4.23909">
        <ele>788</ele>
        <time>2019-11-11T13:59:01.000Z</time>
      </trkpt>
      <trkpt lat="44.60495" lon="4.23924">
        <ele>789.2</ele>
        <time>2019-11-11T13:59:05.000Z</time>
      </trkpt>
      <trkpt lat="44.6051" lon="4.23944">
        <ele>789.4</ele>
        <time>2019-11-11T13:59:10.000Z</time>
      </trkpt>
      <trkpt lat="44.60518" lon="4.2396">
        <ele>786.6</ele>
        <time>2019-11-11T13:59:13.000Z</time>
      </trkpt>
      <trkpt lat="44.60526" lon="4.23988">
        <ele>782.4</ele>
        <time>2019-11-11T13:59:17.000Z</time>
      </trkpt>
      <trkpt lat="44.60533" lon="4.24014">
        <ele>779.8</ele>
        <time>2019-11-11T13:59:21.000Z</time>
      </trkpt>
      <trkpt lat="44.60538" lon="4.24025">
        <ele>779.2</ele>
        <time>2019-11-11T13:59:23.000Z</time>
      </trkpt>
      <trkpt lat="44.60551" lon="4.24045">
        <ele>776.6</ele>
        <time>2019-11-11T13:59:27.000Z</time>
      </trkpt>
      <trkpt lat="44.60562" lon="4.24059">
        <ele>775.4</ele>
        <time>2019-11-11T13:59:30.000Z</time>
      </trkpt>
      <trkpt lat="44.60577" lon="4.24081">
        <ele>774.4</ele>
        <time>2019-11-11T13:59:34.000Z</time>
      </trkpt>
      <trkpt lat="44.60591" lon="4.24102">
        <ele>774</ele>
        <time>2019-11-11T13:59:38.000Z</time>
      </trkpt>
      <trkpt lat="44.60603" lon="4.24125">
        <ele>774.4</ele>
        <time>2019-11-11T13:59:42.000Z</time>
      </trkpt>
      <trkpt lat="44.60615" lon="4.24145">
        <ele>774.8</ele>
        <time>2019-11-11T13:59:46.000Z</time>
      </trkpt>
      <trkpt lat="44.60631" lon="4.24166">
        <ele>777.2</ele>
        <time>2019-11-11T13:59:51.000Z</time>
      </trkpt>
      <trkpt lat="44.60647" lon="4.24176">
        <ele>782.2</ele>
        <time>2019-11-11T13:59:56.000Z</time>
      </trkpt>
      <trkpt lat="44.60658" lon="4.24165">
        <ele>781</ele>
        <time>2019-11-11T14:00:02.000Z</time>
      </trkpt>
      <trkpt lat="44.6066" lon="4.24157">
        <ele>768.6</ele>
        <time>2019-11-11T14:02:11.000Z</time>
      </trkpt>
      <trkpt lat="44.60663" lon="4.24142">
        <ele>771.8</ele>
        <time>2019-11-11T14:02:20.000Z</time>
      </trkpt>
      <trkpt lat="44.60653" lon="4.2412">
        <ele>775.8</ele>
        <time>2019-11-11T14:02:30.000Z</time>
      </trkpt>
      <trkpt lat="44.60645" lon="4.24093">
        <ele>779.2</ele>
        <time>2019-11-11T14:02:40.000Z</time>
      </trkpt>
      <trkpt lat="44.60642" lon="4.24065">
        <ele>784</ele>
        <time>2019-11-11T14:02:50.000Z</time>
      </trkpt>
      <trkpt lat="44.60642" lon="4.24039">
        <ele>785.2</ele>
        <time>2019-11-11T14:03:00.000Z</time>
      </trkpt>
      <trkpt lat="44.60639" lon="4.24013">
        <ele>785.4</ele>
        <time>2019-11-11T14:03:11.000Z</time>
      </trkpt>
      <trkpt lat="44.60636" lon="4.23985">
        <ele>788</ele>
        <time>2019-11-11T14:03:21.000Z</time>
      </trkpt>
      <trkpt lat="44.60633" lon="4.2396">
        <ele>789</ele>
        <time>2019-11-11T14:03:30.000Z</time>
      </trkpt>
      <trkpt lat="44.60631" lon="4.23933">
        <ele>791.4</ele>
        <time>2019-11-11T14:03:39.000Z</time>
      </trkpt>
      <trkpt lat="44.60623" lon="4.2391">
        <ele>795.2</ele>
        <time>2019-11-11T14:03:48.000Z</time>
      </trkpt>
      <trkpt lat="44.60612" lon="4.2389">
        <ele>796.8</ele>
        <time>2019-11-11T14:03:58.000Z</time>
      </trkpt>
      <trkpt lat="44.60597" lon="4.23872">
        <ele>796.6</ele>
        <time>2019-11-11T14:04:08.000Z</time>
      </trkpt>
      <trkpt lat="44.60581" lon="4.23859">
        <ele>796.4</ele>
        <time>2019-11-11T14:04:17.000Z</time>
      </trkpt>
      <trkpt lat="44.60571" lon="4.23839">
        <ele>798</ele>
        <time>2019-11-11T14:04:26.000Z</time>
      </trkpt>
      <trkpt lat="44.60562" lon="4.23815">
        <ele>801</ele>
        <time>2019-11-11T14:04:36.000Z</time>
      </trkpt>
      <trkpt lat="44.60557" lon="4.23791">
        <ele>802.6</ele>
        <time>2019-11-11T14:04:45.000Z</time>
      </trkpt>
      <trkpt lat="44.60554" lon="4.23765">
        <ele>805</ele>
        <time>2019-11-11T14:04:55.000Z</time>
      </trkpt>
      <trkpt lat="44.60547" lon="4.2374">
        <ele>806.2</ele>
        <time>2019-11-11T14:05:06.000Z</time>
      </trkpt>
      <trkpt lat="44.60539" lon="4.23718">
        <ele>807.8</ele>
        <time>2019-11-11T14:05:17.000Z</time>
      </trkpt>
      <trkpt lat="44.60526" lon="4.23699">
        <ele>811</ele>
        <time>2019-11-11T14:05:27.000Z</time>
      </trkpt>
      <trkpt lat="44.60514" lon="4.23679">
        <ele>811.6</ele>
        <time>2019-11-11T14:05:37.000Z</time>
      </trkpt>
      <trkpt lat="44.60499" lon="4.23661">
        <ele>814.8</ele>
        <time>2019-11-11T14:05:47.000Z</time>
      </trkpt>
      <trkpt lat="44.60485" lon="4.23645">
        <ele>816</ele>
        <time>2019-11-11T14:05:58.000Z</time>
      </trkpt>
      <trkpt lat="44.60471" lon="4.23629">
        <ele>817.2</ele>
        <time>2019-11-11T14:06:08.000Z</time>
      </trkpt>
      <trkpt lat="44.60457" lon="4.23612">
        <ele>820.2</ele>
        <time>2019-11-11T14:06:19.000Z</time>
      </trkpt>
      <trkpt lat="44.60445" lon="4.23592">
        <ele>826.6</ele>
        <time>2019-11-11T14:06:32.000Z</time>
      </trkpt>
      <trkpt lat="44.60438" lon="4.23569">
        <ele>830.2</ele>
        <time>2019-11-11T14:06:41.000Z</time>
      </trkpt>
      <trkpt lat="44.60431" lon="4.23545">
        <ele>835.8</ele>
        <time>2019-11-11T14:06:51.000Z</time>
      </trkpt>
      <trkpt lat="44.60422" lon="4.2352">
        <ele>840.6</ele>
        <time>2019-11-11T14:07:01.000Z</time>
      </trkpt>
      <trkpt lat="44.60414" lon="4.23495">
        <ele>844.4</ele>
        <time>2019-11-11T14:07:12.000Z</time>
      </trkpt>
      <trkpt lat="44.60401" lon="4.23477">
        <ele>850.4</ele>
        <time>2019-11-11T14:07:23.000Z</time>
      </trkpt>
      <trkpt lat="44.60387" lon="4.23461">
        <ele>854.4</ele>
        <time>2019-11-11T14:07:34.000Z</time>
      </trkpt>
      <trkpt lat="44.60375" lon="4.2344">
        <ele>858.2</ele>
        <time>2019-11-11T14:07:44.000Z</time>
      </trkpt>
      <trkpt lat="44.60363" lon="4.23419">
        <ele>862.6</ele>
        <time>2019-11-11T14:07:55.000Z</time>
      </trkpt>
      <trkpt lat="44.6035" lon="4.23399">
        <ele>864.4</ele>
        <time>2019-11-11T14:08:05.000Z</time>
      </trkpt>
      <trkpt lat="44.60341" lon="4.23376">
        <ele>857.6</ele>
        <time>2019-11-11T14:08:15.000Z</time>
      </trkpt>
      <trkpt lat="44.60327" lon="4.23356">
        <ele>852</ele>
        <time>2019-11-11T14:08:25.000Z</time>
      </trkpt>
      <trkpt lat="44.60311" lon="4.2334">
        <ele>851.4</ele>
        <time>2019-11-11T14:08:37.000Z</time>
      </trkpt>
      <trkpt lat="44.60296" lon="4.23326">
        <ele>852</ele>
        <time>2019-11-11T14:08:48.000Z</time>
      </trkpt>
      <trkpt lat="44.60293" lon="4.23303">
        <ele>853.2</ele>
        <time>2019-11-11T14:09:05.000Z</time>
      </trkpt>
      <trkpt lat="44.60289" lon="4.2329">
        <ele>861.6</ele>
        <time>2019-11-11T14:09:39.000Z</time>
      </trkpt>
      <trkpt lat="44.60291" lon="4.23266">
        <ele>853.4</ele>
        <time>2019-11-11T14:09:54.000Z</time>
      </trkpt>
      <trkpt lat="44.60294" lon="4.23241">
        <ele>837.4</ele>
        <time>2019-11-11T14:10:05.000Z</time>
      </trkpt>
      <trkpt lat="44.6029" lon="4.23215">
        <ele>834.4</ele>
        <time>2019-11-11T14:10:16.000Z</time>
      </trkpt>
      <trkpt lat="44.60283" lon="4.2319">
        <ele>841</ele>
        <time>2019-11-11T14:10:24.000Z</time>
      </trkpt>
      <trkpt lat="44.60278" lon="4.23164">
        <ele>849.2</ele>
        <time>2019-11-11T14:10:32.000Z</time>
      </trkpt>
      <trkpt lat="44.60269" lon="4.2314">
        <ele>851.8</ele>
        <time>2019-11-11T14:10:41.000Z</time>
      </trkpt>
      <trkpt lat="44.60271" lon="4.23116">
        <ele>853.2</ele>
        <time>2019-11-11T14:10:51.000Z</time>
      </trkpt>
      <trkpt lat="44.60284" lon="4.23093">
        <ele>852</ele>
        <time>2019-11-11T14:10:58.000Z</time>
      </trkpt>
      <trkpt lat="44.60296" lon="4.23073">
        <ele>849.8</ele>
        <time>2019-11-11T14:11:04.000Z</time>
      </trkpt>
      <trkpt lat="44.60306" lon="4.2305">
        <ele>846.8</ele>
        <time>2019-11-11T14:11:12.000Z</time>
      </trkpt>
      <trkpt lat="44.60317" lon="4.23025">
        <ele>850.6</ele>
        <time>2019-11-11T14:11:20.000Z</time>
      </trkpt>
      <trkpt lat="44.60326" lon="4.23001">
        <ele>850.6</ele>
        <time>2019-11-11T14:11:28.000Z</time>
      </trkpt>
      <trkpt lat="44.60337" lon="4.22979">
        <ele>848.6</ele>
        <time>2019-11-11T14:11:37.000Z</time>
      </trkpt>
      <trkpt lat="44.60344" lon="4.22954">
        <ele>844</ele>
        <time>2019-11-11T14:11:48.000Z</time>
      </trkpt>
      <trkpt lat="44.60343" lon="4.22949">
        <ele>844.6</ele>
        <time>2019-11-11T14:11:50.000Z</time>
      </trkpt>
      <trkpt lat="44.60341" lon="4.2292">
        <ele>847</ele>
        <time>2019-11-11T14:12:00.000Z</time>
      </trkpt>
      <trkpt lat="44.60345" lon="4.22895">
        <ele>841.6</ele>
        <time>2019-11-11T14:12:10.000Z</time>
      </trkpt>
      <trkpt lat="44.60351" lon="4.22868">
        <ele>839.6</ele>
        <time>2019-11-11T14:12:18.000Z</time>
      </trkpt>
      <trkpt lat="44.60356" lon="4.22839">
        <ele>849.4</ele>
        <time>2019-11-11T14:12:25.000Z</time>
      </trkpt>
      <trkpt lat="44.60365" lon="4.22816">
        <ele>857.2</ele>
        <time>2019-11-11T14:12:32.000Z</time>
      </trkpt>
      <trkpt lat="44.60376" lon="4.22794">
        <ele>862</ele>
        <time>2019-11-11T14:12:40.000Z</time>
      </trkpt>
      <trkpt lat="44.60388" lon="4.22774">
        <ele>861</ele>
        <time>2019-11-11T14:12:49.000Z</time>
      </trkpt>
      <trkpt lat="44.60405" lon="4.2276">
        <ele>867.6</ele>
        <time>2019-11-11T14:12:57.000Z</time>
      </trkpt>
      <trkpt lat="44.6042" lon="4.22742">
        <ele>871.6</ele>
        <time>2019-11-11T14:13:07.000Z</time>
      </trkpt>
      <trkpt lat="44.60434" lon="4.22725">
        <ele>873.6</ele>
        <time>2019-11-11T14:13:16.000Z</time>
      </trkpt>
      <trkpt lat="44.60448" lon="4.22709">
        <ele>882</ele>
        <time>2019-11-11T14:13:26.000Z</time>
      </trkpt>
      <trkpt lat="44.60465" lon="4.22694">
        <ele>885.2</ele>
        <time>2019-11-11T14:13:36.000Z</time>
      </trkpt>
      <trkpt lat="44.60481" lon="4.2268">
        <ele>886</ele>
        <time>2019-11-11T14:13:45.000Z</time>
      </trkpt>
      <trkpt lat="44.60496" lon="4.22665">
        <ele>887.4</ele>
        <time>2019-11-11T14:13:54.000Z</time>
      </trkpt>
      <trkpt lat="44.60505" lon="4.2264">
        <ele>881.8</ele>
        <time>2019-11-11T14:14:06.000Z</time>
      </trkpt>
      <trkpt lat="44.60513" lon="4.22615">
        <ele>885</ele>
        <time>2019-11-11T14:14:15.000Z</time>
      </trkpt>
      <trkpt lat="44.6052" lon="4.22592">
        <ele>876.8</ele>
        <time>2019-11-11T14:14:25.000Z</time>
      </trkpt>
      <trkpt lat="44.60524" lon="4.22567">
        <ele>882</ele>
        <time>2019-11-11T14:14:34.000Z</time>
      </trkpt>
      <trkpt lat="44.60533" lon="4.22545">
        <ele>880.8</ele>
        <time>2019-11-11T14:14:43.000Z</time>
      </trkpt>
      <trkpt lat="44.60535" lon="4.22518">
        <ele>882.8</ele>
        <time>2019-11-11T14:14:53.000Z</time>
      </trkpt>
      <trkpt lat="44.60525" lon="4.22495">
        <ele>893</ele>
        <time>2019-11-11T14:15:04.000Z</time>
      </trkpt>
      <trkpt lat="44.6051" lon="4.2248">
        <ele>897.6</ele>
        <time>2019-11-11T14:15:14.000Z</time>
      </trkpt>
      <trkpt lat="44.60494" lon="4.22468">
        <ele>899.2</ele>
        <time>2019-11-11T14:15:24.000Z</time>
      </trkpt>
      <trkpt lat="44.60479" lon="4.22452">
        <ele>902.2</ele>
        <time>2019-11-11T14:15:36.000Z</time>
      </trkpt>
      <trkpt lat="44.60463" lon="4.22441">
        <ele>906.4</ele>
        <time>2019-11-11T14:15:49.000Z</time>
      </trkpt>
      <trkpt lat="44.60445" lon="4.22429">
        <ele>907.8</ele>
        <time>2019-11-11T14:16:00.000Z</time>
      </trkpt>
      <trkpt lat="44.60427" lon="4.22425">
        <ele>909.6</ele>
        <time>2019-11-11T14:16:11.000Z</time>
      </trkpt>
      <trkpt lat="44.60409" lon="4.22419">
        <ele>906.8</ele>
        <time>2019-11-11T14:16:23.000Z</time>
      </trkpt>
      <trkpt lat="44.60392" lon="4.2241">
        <ele>909.4</ele>
        <time>2019-11-11T14:16:35.000Z</time>
      </trkpt>
      <trkpt lat="44.60374" lon="4.22401">
        <ele>911.2</ele>
        <time>2019-11-11T14:16:47.000Z</time>
      </trkpt>
      <trkpt lat="44.60356" lon="4.22393">
        <ele>912</ele>
        <time>2019-11-11T14:16:58.000Z</time>
      </trkpt>
      <trkpt lat="44.60337" lon="4.22389">
        <ele>915.8</ele>
        <time>2019-11-11T14:17:09.000Z</time>
      </trkpt>
      <trkpt lat="44.6032" lon="4.22379">
        <ele>923</ele>
        <time>2019-11-11T14:17:20.000Z</time>
      </trkpt>
      <trkpt lat="44.60302" lon="4.22372">
        <ele>928.6</ele>
        <time>2019-11-11T14:17:30.000Z</time>
      </trkpt>
      <trkpt lat="44.60282" lon="4.22374">
        <ele>929.4</ele>
        <time>2019-11-11T14:17:41.000Z</time>
      </trkpt>
      <trkpt lat="44.60263" lon="4.22372">
        <ele>931.6</ele>
        <time>2019-11-11T14:17:52.000Z</time>
      </trkpt>
      <trkpt lat="44.60245" lon="4.22365">
        <ele>934.6</ele>
        <time>2019-11-11T14:18:01.000Z</time>
      </trkpt>
      <trkpt lat="44.60226" lon="4.22356">
        <ele>939.2</ele>
        <time>2019-11-11T14:18:10.000Z</time>
      </trkpt>
      <trkpt lat="44.60209" lon="4.22345">
        <ele>947</ele>
        <time>2019-11-11T14:18:21.000Z</time>
      </trkpt>
      <trkpt lat="44.60192" lon="4.22336">
        <ele>949.4</ele>
        <time>2019-11-11T14:18:32.000Z</time>
      </trkpt>
      <trkpt lat="44.60176" lon="4.22323">
        <ele>958</ele>
        <time>2019-11-11T14:18:42.000Z</time>
      </trkpt>
      <trkpt lat="44.60161" lon="4.22306">
        <ele>958.4</ele>
        <time>2019-11-11T14:18:53.000Z</time>
      </trkpt>
      <trkpt lat="44.60152" lon="4.22284">
        <ele>949.8</ele>
        <time>2019-11-11T14:19:04.000Z</time>
      </trkpt>
      <trkpt lat="44.6014" lon="4.22262">
        <ele>952</ele>
        <time>2019-11-11T14:19:16.000Z</time>
      </trkpt>
      <trkpt lat="44.6013" lon="4.2224">
        <ele>945.4</ele>
        <time>2019-11-11T14:19:26.000Z</time>
      </trkpt>
      <trkpt lat="44.60117" lon="4.2222">
        <ele>949.4</ele>
        <time>2019-11-11T14:19:37.000Z</time>
      </trkpt>
      <trkpt lat="44.60102" lon="4.22207">
        <ele>952.2</ele>
        <time>2019-11-11T14:19:49.000Z</time>
      </trkpt>
      <trkpt lat="44.60084" lon="4.22198">
        <ele>953.6</ele>
        <time>2019-11-11T14:20:01.000Z</time>
      </trkpt>
      <trkpt lat="44.60068" lon="4.22183">
        <ele>951</ele>
        <time>2019-11-11T14:20:11.000Z</time>
      </trkpt>
      <trkpt lat="44.60062" lon="4.22158">
        <ele>944.8</ele>
        <time>2019-11-11T14:20:19.000Z</time>
      </trkpt>
      <trkpt lat="44.60063" lon="4.2213">
        <ele>944.6</ele>
        <time>2019-11-11T14:20:28.000Z</time>
      </trkpt>
      <trkpt lat="44.60059" lon="4.22105">
        <ele>942.4</ele>
        <time>2019-11-11T14:20:38.000Z</time>
      </trkpt>
      <trkpt lat="44.6005" lon="4.22082">
        <ele>946</ele>
        <time>2019-11-11T14:20:48.000Z</time>
      </trkpt>
      <trkpt lat="44.6005" lon="4.22066">
        <ele>949.4</ele>
        <time>2019-11-11T14:20:55.000Z</time>
      </trkpt>
      <trkpt lat="44.60061" lon="4.22047">
        <ele>952</ele>
        <time>2019-11-11T14:21:03.000Z</time>
      </trkpt>
      <trkpt lat="44.60078" lon="4.22036">
        <ele>953.6</ele>
        <time>2019-11-11T14:21:12.000Z</time>
      </trkpt>
      <trkpt lat="44.60093" lon="4.22022">
        <ele>964.8</ele>
        <time>2019-11-11T14:21:23.000Z</time>
      </trkpt>
      <trkpt lat="44.60111" lon="4.2201">
        <ele>972.6</ele>
        <time>2019-11-11T14:21:33.000Z</time>
      </trkpt>
      <trkpt lat="44.6013" lon="4.22">
        <ele>977</ele>
        <time>2019-11-11T14:21:44.000Z</time>
      </trkpt>
      <trkpt lat="44.60148" lon="4.21993">
        <ele>979.2</ele>
        <time>2019-11-11T14:21:56.000Z</time>
      </trkpt>
      <trkpt lat="44.60163" lon="4.2198">
        <ele>973.2</ele>
        <time>2019-11-11T14:22:08.000Z</time>
      </trkpt>
      <trkpt lat="44.6017" lon="4.21954">
        <ele>958</ele>
        <time>2019-11-11T14:22:22.000Z</time>
      </trkpt>
      <trkpt lat="44.60163" lon="4.2193">
        <ele>962</ele>
        <time>2019-11-11T14:22:33.000Z</time>
      </trkpt>
      <trkpt lat="44.60155" lon="4.21908">
        <ele>963.2</ele>
        <time>2019-11-11T14:22:46.000Z</time>
      </trkpt>
      <trkpt lat="44.60143" lon="4.2189">
        <ele>961.4</ele>
        <time>2019-11-11T14:22:58.000Z</time>
      </trkpt>
      <trkpt lat="44.60134" lon="4.21868">
        <ele>961.6</ele>
        <time>2019-11-11T14:23:11.000Z</time>
      </trkpt>
      <trkpt lat="44.60132" lon="4.21842">
        <ele>966.4</ele>
        <time>2019-11-11T14:23:23.000Z</time>
      </trkpt>
      <trkpt lat="44.6012" lon="4.21829">
        <ele>982</ele>
        <time>2019-11-11T14:23:41.000Z</time>
      </trkpt>
      <trkpt lat="44.60112" lon="4.21816">
        <ele>993.6</ele>
        <time>2019-11-11T14:24:03.000Z</time>
      </trkpt>
      <trkpt lat="44.60102" lon="4.21795">
        <ele>993</ele>
        <time>2019-11-11T14:24:17.000Z</time>
      </trkpt>
      <trkpt lat="44.60101" lon="4.2179">
        <ele>991.6</ele>
        <time>2019-11-11T14:24:20.000Z</time>
      </trkpt>
      <trkpt lat="44.60113" lon="4.21778">
        <ele>988.8</ele>
        <time>2019-11-11T14:24:28.000Z</time>
      </trkpt>
      <trkpt lat="44.60128" lon="4.21763">
        <ele>986.8</ele>
        <time>2019-11-11T14:24:39.000Z</time>
      </trkpt>
      <trkpt lat="44.60143" lon="4.21745">
        <ele>985.6</ele>
        <time>2019-11-11T14:24:51.000Z</time>
      </trkpt>
      <trkpt lat="44.60157" lon="4.21726">
        <ele>982.8</ele>
        <time>2019-11-11T14:25:02.000Z</time>
      </trkpt>
      <trkpt lat="44.60173" lon="4.21711">
        <ele>988.8</ele>
        <time>2019-11-11T14:25:14.000Z</time>
      </trkpt>
      <trkpt lat="44.60188" lon="4.21698">
        <ele>989.4</ele>
        <time>2019-11-11T14:25:24.000Z</time>
      </trkpt>
      <trkpt lat="44.60202" lon="4.2168">
        <ele>988</ele>
        <time>2019-11-11T14:25:36.000Z</time>
      </trkpt>
      <trkpt lat="44.60208" lon="4.21655">
        <ele>977.6</ele>
        <time>2019-11-11T14:25:48.000Z</time>
      </trkpt>
      <trkpt lat="44.6022" lon="4.21634">
        <ele>975.4</ele>
        <time>2019-11-11T14:25:59.000Z</time>
      </trkpt>
      <trkpt lat="44.6023" lon="4.21612">
        <ele>978</ele>
        <time>2019-11-11T14:26:10.000Z</time>
      </trkpt>
      <trkpt lat="44.60221" lon="4.21591">
        <ele>993.6</ele>
        <time>2019-11-11T14:26:22.000Z</time>
      </trkpt>
      <trkpt lat="44.60204" lon="4.21578">
        <ele>1006</ele>
        <time>2019-11-11T14:26:36.000Z</time>
      </trkpt>
      <trkpt lat="44.60187" lon="4.21565">
        <ele>1011.8</ele>
        <time>2019-11-11T14:26:49.000Z</time>
      </trkpt>
      <trkpt lat="44.60171" lon="4.21551">
        <ele>1017.8</ele>
        <time>2019-11-11T14:27:01.000Z</time>
      </trkpt>
      <trkpt lat="44.60156" lon="4.21536">
        <ele>1021.8</ele>
        <time>2019-11-11T14:27:14.000Z</time>
      </trkpt>
      <trkpt lat="44.60141" lon="4.21521">
        <ele>1027</ele>
        <time>2019-11-11T14:27:25.000Z</time>
      </trkpt>
      <trkpt lat="44.60126" lon="4.21504">
        <ele>1027.8</ele>
        <time>2019-11-11T14:27:37.000Z</time>
      </trkpt>
      <trkpt lat="44.60112" lon="4.21485">
        <ele>1029.8</ele>
        <time>2019-11-11T14:27:48.000Z</time>
      </trkpt>
      <trkpt lat="44.60099" lon="4.21465">
        <ele>1031.6</ele>
        <time>2019-11-11T14:28:01.000Z</time>
      </trkpt>
      <trkpt lat="44.60083" lon="4.2145">
        <ele>1027.8</ele>
        <time>2019-11-11T14:28:13.000Z</time>
      </trkpt>
      <trkpt lat="44.60072" lon="4.21429">
        <ele>1014.6</ele>
        <time>2019-11-11T14:28:23.000Z</time>
      </trkpt>
      <trkpt lat="44.60062" lon="4.21406">
        <ele>1022.4</ele>
        <time>2019-11-11T14:28:35.000Z</time>
      </trkpt>
      <trkpt lat="44.60059" lon="4.21381">
        <ele>1015</ele>
        <time>2019-11-11T14:28:46.000Z</time>
      </trkpt>
      <trkpt lat="44.60057" lon="4.21355">
        <ele>1005.8</ele>
        <time>2019-11-11T14:28:57.000Z</time>
      </trkpt>
      <trkpt lat="44.60052" lon="4.2133">
        <ele>1008.2</ele>
        <time>2019-11-11T14:29:11.000Z</time>
      </trkpt>
      <trkpt lat="44.60056" lon="4.21304">
        <ele>1025.4</ele>
        <time>2019-11-11T14:29:23.000Z</time>
      </trkpt>
      <trkpt lat="44.60056" lon="4.21293">
        <ele>1030.2</ele>
        <time>2019-11-11T14:29:29.000Z</time>
      </trkpt>
      <trkpt lat="44.60063" lon="4.21269">
        <ele>1033.6</ele>
        <time>2019-11-11T14:29:41.000Z</time>
      </trkpt>
      <trkpt lat="44.60063" lon="4.21252">
        <ele>1022.8</ele>
        <time>2019-11-11T14:29:50.000Z</time>
      </trkpt>
      <trkpt lat="44.60067" lon="4.21227">
        <ele>1022.4</ele>
        <time>2019-11-11T14:30:02.000Z</time>
      </trkpt>
      <trkpt lat="44.60075" lon="4.21203">
        <ele>1027.2</ele>
        <time>2019-11-11T14:30:11.000Z</time>
      </trkpt>
      <trkpt lat="44.60081" lon="4.21176">
        <ele>1020.4</ele>
        <time>2019-11-11T14:30:20.000Z</time>
      </trkpt>
      <trkpt lat="44.60084" lon="4.2115">
        <ele>1018.8</ele>
        <time>2019-11-11T14:30:30.000Z</time>
      </trkpt>
      <trkpt lat="44.60086" lon="4.21123">
        <ele>1029.6</ele>
        <time>2019-11-11T14:30:39.000Z</time>
      </trkpt>
      <trkpt lat="44.60086" lon="4.21096">
        <ele>1031.8</ele>
        <time>2019-11-11T14:30:49.000Z</time>
      </trkpt>
      <trkpt lat="44.60085" lon="4.2107">
        <ele>1036.6</ele>
        <time>2019-11-11T14:31:01.000Z</time>
      </trkpt>
      <trkpt lat="44.60089" lon="4.21043">
        <ele>1041.8</ele>
        <time>2019-11-11T14:31:12.000Z</time>
      </trkpt>
      <trkpt lat="44.60096" lon="4.21019">
        <ele>1039.8</ele>
        <time>2019-11-11T14:31:22.000Z</time>
      </trkpt>
      <trkpt lat="44.60104" lon="4.20996">
        <ele>1037.2</ele>
        <time>2019-11-11T14:31:32.000Z</time>
      </trkpt>
      <trkpt lat="44.60112" lon="4.20973">
        <ele>1039.4</ele>
        <time>2019-11-11T14:31:42.000Z</time>
      </trkpt>
      <trkpt lat="44.60122" lon="4.20952">
        <ele>1041.4</ele>
        <time>2019-11-11T14:31:52.000Z</time>
      </trkpt>
      <trkpt lat="44.60134" lon="4.20932">
        <ele>1041.4</ele>
        <time>2019-11-11T14:32:03.000Z</time>
      </trkpt>
      <trkpt lat="44.60138" lon="4.20906">
        <ele>1036.2</ele>
        <time>2019-11-11T14:32:15.000Z</time>
      </trkpt>
      <trkpt lat="44.60138" lon="4.20881">
        <ele>1032.4</ele>
        <time>2019-11-11T14:32:28.000Z</time>
      </trkpt>
      <trkpt lat="44.60135" lon="4.20855">
        <ele>1035</ele>
        <time>2019-11-11T14:32:38.000Z</time>
      </trkpt>
      <trkpt lat="44.60141" lon="4.2083">
        <ele>1039.6</ele>
        <time>2019-11-11T14:32:48.000Z</time>
      </trkpt>
      <trkpt lat="44.60149" lon="4.20806">
        <ele>1048.4</ele>
        <time>2019-11-11T14:32:59.000Z</time>
      </trkpt>
      <trkpt lat="44.60163" lon="4.20787">
        <ele>1051.8</ele>
        <time>2019-11-11T14:33:09.000Z</time>
      </trkpt>
      <trkpt lat="44.60177" lon="4.2077">
        <ele>1053.4</ele>
        <time>2019-11-11T14:33:18.000Z</time>
      </trkpt>
      <trkpt lat="44.60191" lon="4.20754">
        <ele>1053.2</ele>
        <time>2019-11-11T14:33:28.000Z</time>
      </trkpt>
      <trkpt lat="44.60205" lon="4.20738">
        <ele>1051.6</ele>
        <time>2019-11-11T14:33:39.000Z</time>
      </trkpt>
      <trkpt lat="44.60218" lon="4.20717">
        <ele>1052.8</ele>
        <time>2019-11-11T14:33:52.000Z</time>
      </trkpt>
      <trkpt lat="44.60226" lon="4.20694">
        <ele>1049.2</ele>
        <time>2019-11-11T14:34:04.000Z</time>
      </trkpt>
      <trkpt lat="44.60221" lon="4.20667">
        <ele>1054</ele>
        <time>2019-11-11T14:34:15.000Z</time>
      </trkpt>
      <trkpt lat="44.60219" lon="4.20641">
        <ele>1053.2</ele>
        <time>2019-11-11T14:34:29.000Z</time>
      </trkpt>
      <trkpt lat="44.60222" lon="4.20615">
        <ele>1056</ele>
        <time>2019-11-11T14:34:41.000Z</time>
      </trkpt>
      <trkpt lat="44.60222" lon="4.20588">
        <ele>1058.4</ele>
        <time>2019-11-11T14:34:53.000Z</time>
      </trkpt>
      <trkpt lat="44.60225" lon="4.20561">
        <ele>1060.2</ele>
        <time>2019-11-11T14:35:05.000Z</time>
      </trkpt>
      <trkpt lat="44.60226" lon="4.20534">
        <ele>1062.4</ele>
        <time>2019-11-11T14:35:16.000Z</time>
      </trkpt>
      <trkpt lat="44.60225" lon="4.20508">
        <ele>1060.6</ele>
        <time>2019-11-11T14:35:27.000Z</time>
      </trkpt>
      <trkpt lat="44.6022" lon="4.20482">
        <ele>1066</ele>
        <time>2019-11-11T14:35:38.000Z</time>
      </trkpt>
      <trkpt lat="44.60221" lon="4.20457">
        <ele>1070.4</ele>
        <time>2019-11-11T14:35:47.000Z</time>
      </trkpt>
      <trkpt lat="44.60218" lon="4.20432">
        <ele>1068.2</ele>
        <time>2019-11-11T14:35:57.000Z</time>
      </trkpt>
      <trkpt lat="44.60219" lon="4.20406">
        <ele>1071.6</ele>
        <time>2019-11-11T14:36:08.000Z</time>
      </trkpt>
      <trkpt lat="44.60216" lon="4.20399">
        <ele>1074.8</ele>
        <time>2019-11-11T14:36:12.000Z</time>
      </trkpt>
      <trkpt lat="44.60211" lon="4.20409">
        <ele>1077.4</ele>
        <time>2019-11-11T14:36:18.000Z</time>
      </trkpt>
      <trkpt lat="44.6021" lon="4.20437">
        <ele>1079.4</ele>
        <time>2019-11-11T14:36:28.000Z</time>
      </trkpt>
      <trkpt lat="44.6021" lon="4.20465">
        <ele>1079.6</ele>
        <time>2019-11-11T14:36:38.000Z</time>
      </trkpt>
      <trkpt lat="44.60209" lon="4.2049">
        <ele>1081.4</ele>
        <time>2019-11-11T14:36:48.000Z</time>
      </trkpt>
      <trkpt lat="44.60207" lon="4.20515">
        <ele>1083</ele>
        <time>2019-11-11T14:36:58.000Z</time>
      </trkpt>
      <trkpt lat="44.60201" lon="4.20541">
        <ele>1082.8</ele>
        <time>2019-11-11T14:37:07.000Z</time>
      </trkpt>
      <trkpt lat="44.60194" lon="4.20567">
        <ele>1081.4</ele>
        <time>2019-11-11T14:37:16.000Z</time>
      </trkpt>
      <trkpt lat="44.60189" lon="4.20593">
        <ele>1080.8</ele>
        <time>2019-11-11T14:37:23.000Z</time>
      </trkpt>
      <trkpt lat="44.60187" lon="4.20618">
        <ele>1081.2</ele>
        <time>2019-11-11T14:37:28.000Z</time>
      </trkpt>
      <trkpt lat="44.60185" lon="4.20643">
        <ele>1081.2</ele>
        <time>2019-11-11T14:37:33.000Z</time>
      </trkpt>
      <trkpt lat="44.60179" lon="4.20668">
        <ele>1078.8</ele>
        <time>2019-11-11T14:37:38.000Z</time>
      </trkpt>
      <trkpt lat="44.60167" lon="4.20689">
        <ele>1078.2</ele>
        <time>2019-11-11T14:37:43.000Z</time>
      </trkpt>
      <trkpt lat="44.60149" lon="4.20705">
        <ele>1077.2</ele>
        <time>2019-11-11T14:37:48.000Z</time>
      </trkpt>
      <trkpt lat="44.60132" lon="4.2072">
        <ele>1076.2</ele>
        <time>2019-11-11T14:37:52.000Z</time>
      </trkpt>
      <trkpt lat="44.60116" lon="4.2074">
        <ele>1077</ele>
        <time>2019-11-11T14:37:56.000Z</time>
      </trkpt>
      <trkpt lat="44.60105" lon="4.2076">
        <ele>1077.6</ele>
        <time>2019-11-11T14:38:00.000Z</time>
      </trkpt>
      <trkpt lat="44.60093" lon="4.20785">
        <ele>1075.6</ele>
        <time>2019-11-11T14:38:05.000Z</time>
      </trkpt>
      <trkpt lat="44.60082" lon="4.20811">
        <ele>1073.2</ele>
        <time>2019-11-11T14:38:09.000Z</time>
      </trkpt>
      <trkpt lat="44.60073" lon="4.20841">
        <ele>1070.8</ele>
        <time>2019-11-11T14:38:13.000Z</time>
      </trkpt>
      <trkpt lat="44.60065" lon="4.20871">
        <ele>1067.8</ele>
        <time>2019-11-11T14:38:17.000Z</time>
      </trkpt>
      <trkpt lat="44.60053" lon="4.20898">
        <ele>1064.8</ele>
        <time>2019-11-11T14:38:21.000Z</time>
      </trkpt>
      <trkpt lat="44.60041" lon="4.20919">
        <ele>1064.4</ele>
        <time>2019-11-11T14:38:25.000Z</time>
      </trkpt>
      <trkpt lat="44.60026" lon="4.20937">
        <ele>1064.4</ele>
        <time>2019-11-11T14:38:29.000Z</time>
      </trkpt>
      <trkpt lat="44.60006" lon="4.20954">
        <ele>1064.8</ele>
        <time>2019-11-11T14:38:33.000Z</time>
      </trkpt>
      <trkpt lat="44.59989" lon="4.20964">
        <ele>1068.4</ele>
        <time>2019-11-11T14:38:40.000Z</time>
      </trkpt>
      <trkpt lat="44.59981" lon="4.2096">
        <ele>1067</ele>
        <time>2019-11-11T14:43:48.000Z</time>
      </trkpt>
      <trkpt lat="44.59982" lon="4.20986">
        <ele>1067.8</ele>
        <time>2019-11-11T14:44:19.000Z</time>
      </trkpt>
      <trkpt lat="44.59978" lon="4.2101">
        <ele>1070</ele>
        <time>2019-11-11T14:44:31.000Z</time>
      </trkpt>
      <trkpt lat="44.59972" lon="4.21036">
        <ele>1073</ele>
        <time>2019-11-11T14:44:44.000Z</time>
      </trkpt>
      <trkpt lat="44.59967" lon="4.21062">
        <ele>1076.4</ele>
        <time>2019-11-11T14:44:57.000Z</time>
      </trkpt>
      <trkpt lat="44.59965" lon="4.21088">
        <ele>1079.6</ele>
        <time>2019-11-11T14:45:09.000Z</time>
      </trkpt>
      <trkpt lat="44.59965" lon="4.21115">
        <ele>1084</ele>
        <time>2019-11-11T14:45:21.000Z</time>
      </trkpt>
      <trkpt lat="44.59964" lon="4.21142">
        <ele>1088</ele>
        <time>2019-11-11T14:45:34.000Z</time>
      </trkpt>
      <trkpt lat="44.59956" lon="4.21166">
        <ele>1089.8</ele>
        <time>2019-11-11T14:45:48.000Z</time>
      </trkpt>
      <trkpt lat="44.59938" lon="4.21174">
        <ele>1092.4</ele>
        <time>2019-11-11T14:46:36.000Z</time>
      </trkpt>
      <trkpt lat="44.59929" lon="4.2118">
        <ele>1094.6</ele>
        <time>2019-11-11T14:48:28.000Z</time>
      </trkpt>
      <trkpt lat="44.59931" lon="4.21206">
        <ele>1094.6</ele>
        <time>2019-11-11T14:48:53.000Z</time>
      </trkpt>
      <trkpt lat="44.59926" lon="4.21226">
        <ele>1103.4</ele>
        <time>2019-11-11T14:49:36.000Z</time>
      </trkpt>
      <trkpt lat="44.59922" lon="4.21249">
        <ele>1114.4</ele>
        <time>2019-11-11T14:50:17.000Z</time>
      </trkpt>
      <trkpt lat="44.59919" lon="4.21272">
        <ele>1120.6</ele>
        <time>2019-11-11T14:50:52.000Z</time>
      </trkpt>
      <trkpt lat="44.59916" lon="4.2129">
        <ele>1127</ele>
        <time>2019-11-11T14:51:51.000Z</time>
      </trkpt>
      <trkpt lat="44.59903" lon="4.21298">
        <ele>1140.2</ele>
        <time>2019-11-11T14:53:11.000Z</time>
      </trkpt>
      <trkpt lat="44.5989" lon="4.21312">
        <ele>1142.2</ele>
        <time>2019-11-11T14:53:49.000Z</time>
      </trkpt>
      <trkpt lat="44.59876" lon="4.21323">
        <ele>1145.6</ele>
        <time>2019-11-11T14:54:50.000Z</time>
      </trkpt>
      <trkpt lat="44.59887" lon="4.21316">
        <ele>1146.6</ele>
        <time>2019-11-11T14:55:56.000Z</time>
      </trkpt>
      <trkpt lat="44.59878" lon="4.21332">
        <ele>1138.2</ele>
        <time>2019-11-11T14:56:34.000Z</time>
      </trkpt>
      <trkpt lat="44.59866" lon="4.21347">
        <ele>1143.6</ele>
        <time>2019-11-11T14:57:06.000Z</time>
      </trkpt>
      <trkpt lat="44.59848" lon="4.21351">
        <ele>1157.2</ele>
        <time>2019-11-11T14:57:45.000Z</time>
      </trkpt>
      <trkpt lat="44.59831" lon="4.21356">
        <ele>1159.8</ele>
        <time>2019-11-11T14:58:23.000Z</time>
      </trkpt>
      <trkpt lat="44.5982" lon="4.2137">
        <ele>1168.4</ele>
        <time>2019-11-11T14:59:22.000Z</time>
      </trkpt>
      <trkpt lat="44.59817" lon="4.2138">
        <ele>1167.2</ele>
        <time>2019-11-11T15:03:53.000Z</time>
      </trkpt>
      <trkpt lat="44.59814" lon="4.21405">
        <ele>1169.2</ele>
        <time>2019-11-11T15:04:26.000Z</time>
      </trkpt>
      <trkpt lat="44.59809" lon="4.21429">
        <ele>1173.2</ele>
        <time>2019-11-11T15:05:07.000Z</time>
      </trkpt>
      <trkpt lat="44.59799" lon="4.21452">
        <ele>1177</ele>
        <time>2019-11-11T15:05:40.000Z</time>
      </trkpt>
      <trkpt lat="44.59795" lon="4.21477">
        <ele>1179.8</ele>
        <time>2019-11-11T15:06:02.000Z</time>
      </trkpt>
      <trkpt lat="44.5979" lon="4.21502">
        <ele>1186</ele>
        <time>2019-11-11T15:06:28.000Z</time>
      </trkpt>
      <trkpt lat="44.59776" lon="4.21519">
        <ele>1195.2</ele>
        <time>2019-11-11T15:06:49.000Z</time>
      </trkpt>
      <trkpt lat="44.59761" lon="4.21525">
        <ele>1205.4</ele>
        <time>2019-11-11T15:08:31.000Z</time>
      </trkpt>
      <trkpt lat="44.59743" lon="4.21531">
        <ele>1204</ele>
        <time>2019-11-11T15:08:47.000Z</time>
      </trkpt>
      <trkpt lat="44.59732" lon="4.21551">
        <ele>1202.6</ele>
        <time>2019-11-11T15:08:59.000Z</time>
      </trkpt>
      <trkpt lat="44.59722" lon="4.21573">
        <ele>1199.4</ele>
        <time>2019-11-11T15:09:08.000Z</time>
      </trkpt>
      <trkpt lat="44.59713" lon="4.21595">
        <ele>1199</ele>
        <time>2019-11-11T15:09:17.000Z</time>
      </trkpt>
      <trkpt lat="44.5971" lon="4.21622">
        <ele>1196</ele>
        <time>2019-11-11T15:09:25.000Z</time>
      </trkpt>
      <trkpt lat="44.59706" lon="4.21651">
        <ele>1192.4</ele>
        <time>2019-11-11T15:09:31.000Z</time>
      </trkpt>
      <trkpt lat="44.59696" lon="4.21674">
        <ele>1187</ele>
        <time>2019-11-11T15:09:37.000Z</time>
      </trkpt>
      <trkpt lat="44.59678" lon="4.21683">
        <ele>1184.8</ele>
        <time>2019-11-11T15:09:41.000Z</time>
      </trkpt>
      <trkpt lat="44.59673" lon="4.21684">
        <ele>1184.6</ele>
        <time>2019-11-11T15:09:42.000Z</time>
      </trkpt>
      <trkpt lat="44.59657" lon="4.21687">
        <ele>1182.6</ele>
        <time>2019-11-11T15:09:46.000Z</time>
      </trkpt>
      <trkpt lat="44.59637" lon="4.21692">
        <ele>1179.2</ele>
        <time>2019-11-11T15:09:51.000Z</time>
      </trkpt>
      <trkpt lat="44.59615" lon="4.21696">
        <ele>1176.4</ele>
        <time>2019-11-11T15:09:56.000Z</time>
      </trkpt>
      <trkpt lat="44.59595" lon="4.21697">
        <ele>1174.6</ele>
        <time>2019-11-11T15:10:00.000Z</time>
      </trkpt>
      <trkpt lat="44.59574" lon="4.21703">
        <ele>1171</ele>
        <time>2019-11-11T15:10:05.000Z</time>
      </trkpt>
      <trkpt lat="44.59563" lon="4.21706">
        <ele>1170.4</ele>
        <time>2019-11-11T15:10:07.000Z</time>
      </trkpt>
      <trkpt lat="44.59539" lon="4.21706">
        <ele>1169.2</ele>
        <time>2019-11-11T15:10:11.000Z</time>
      </trkpt>
      <trkpt lat="44.59534" lon="4.21704">
        <ele>1169.2</ele>
        <time>2019-11-11T15:10:12.000Z</time>
      </trkpt>
      <trkpt lat="44.59514" lon="4.21695">
        <ele>1169.4</ele>
        <time>2019-11-11T15:10:17.000Z</time>
      </trkpt>
      <trkpt lat="44.59496" lon="4.21693">
        <ele>1170</ele>
        <time>2019-11-11T15:10:25.000Z</time>
      </trkpt>
      <trkpt lat="44.59477" lon="4.21692">
        <ele>1171.4</ele>
        <time>2019-11-11T15:10:32.000Z</time>
      </trkpt>
      <trkpt lat="44.59458" lon="4.21687">
        <ele>1175.6</ele>
        <time>2019-11-11T15:10:42.000Z</time>
      </trkpt>
      <trkpt lat="44.59439" lon="4.21692">
        <ele>1177.6</ele>
        <time>2019-11-11T15:10:54.000Z</time>
      </trkpt>
      <trkpt lat="44.59428" lon="4.21696">
        <ele>1177.8</ele>
        <time>2019-11-11T15:14:17.000Z</time>
      </trkpt>
      <trkpt lat="44.5941" lon="4.21712">
        <ele>1177.2</ele>
        <time>2019-11-11T15:14:26.000Z</time>
      </trkpt>
      <trkpt lat="44.59391" lon="4.21723">
        <ele>1176.6</ele>
        <time>2019-11-11T15:14:31.000Z</time>
      </trkpt>
      <trkpt lat="44.59382" lon="4.21729">
        <ele>1176</ele>
        <time>2019-11-11T15:14:33.000Z</time>
      </trkpt>
      <trkpt lat="44.59367" lon="4.21734">
        <ele>1175</ele>
        <time>2019-11-11T15:14:36.000Z</time>
      </trkpt>
      <trkpt lat="44.59347" lon="4.21735">
        <ele>1173.4</ele>
        <time>2019-11-11T15:14:40.000Z</time>
      </trkpt>
      <trkpt lat="44.59335" lon="4.21734">
        <ele>1172.2</ele>
        <time>2019-11-11T15:14:43.000Z</time>
      </trkpt>
      <trkpt lat="44.59316" lon="4.21726">
        <ele>1169</ele>
        <time>2019-11-11T15:14:47.000Z</time>
      </trkpt>
      <trkpt lat="44.59307" lon="4.21722">
        <ele>1167.2</ele>
        <time>2019-11-11T15:14:49.000Z</time>
      </trkpt>
      <trkpt lat="44.59298" lon="4.21717">
        <ele>1165.8</ele>
        <time>2019-11-11T15:14:51.000Z</time>
      </trkpt>
      <trkpt lat="44.5928" lon="4.21699">
        <ele>1163.4</ele>
        <time>2019-11-11T15:14:55.000Z</time>
      </trkpt>
      <trkpt lat="44.59263" lon="4.21686">
        <ele>1161.8</ele>
        <time>2019-11-11T15:14:59.000Z</time>
      </trkpt>
      <trkpt lat="44.59245" lon="4.21677">
        <ele>1162.2</ele>
        <time>2019-11-11T15:15:06.000Z</time>
      </trkpt>
      <trkpt lat="44.59227" lon="4.21672">
        <ele>1163.4</ele>
        <time>2019-11-11T15:15:14.000Z</time>
      </trkpt>
      <trkpt lat="44.59209" lon="4.21667">
        <ele>1163.6</ele>
        <time>2019-11-11T15:15:23.000Z</time>
      </trkpt>
      <trkpt lat="44.5919" lon="4.21663">
        <ele>1166.4</ele>
        <time>2019-11-11T15:15:32.000Z</time>
      </trkpt>
      <trkpt lat="44.59175" lon="4.21676">
        <ele>1166.2</ele>
        <time>2019-11-11T15:15:40.000Z</time>
      </trkpt>
      <trkpt lat="44.59158" lon="4.21692">
        <ele>1164.2</ele>
        <time>2019-11-11T15:15:47.000Z</time>
      </trkpt>
      <trkpt lat="44.59146" lon="4.21715">
        <ele>1160.2</ele>
        <time>2019-11-11T15:16:03.000Z</time>
      </trkpt>
      <trkpt lat="44.59133" lon="4.21737">
        <ele>1151.4</ele>
        <time>2019-11-11T15:16:10.000Z</time>
      </trkpt>
      <trkpt lat="44.59125" lon="4.21763">
        <ele>1143.6</ele>
        <time>2019-11-11T15:16:16.000Z</time>
      </trkpt>
      <trkpt lat="44.59115" lon="4.21784">
        <ele>1135.4</ele>
        <time>2019-11-11T15:16:23.000Z</time>
      </trkpt>
      <trkpt lat="44.59104" lon="4.21805">
        <ele>1129.4</ele>
        <time>2019-11-11T15:16:30.000Z</time>
      </trkpt>
      <trkpt lat="44.5909" lon="4.21824">
        <ele>1125.6</ele>
        <time>2019-11-11T15:16:35.000Z</time>
      </trkpt>
      <trkpt lat="44.59077" lon="4.21842">
        <ele>1122.8</ele>
        <time>2019-11-11T15:16:39.000Z</time>
      </trkpt>
      <trkpt lat="44.59058" lon="4.21853">
        <ele>1120</ele>
        <time>2019-11-11T15:16:44.000Z</time>
      </trkpt>
      <trkpt lat="44.59038" lon="4.21864">
        <ele>1117.2</ele>
        <time>2019-11-11T15:16:49.000Z</time>
      </trkpt>
      <trkpt lat="44.59021" lon="4.21871">
        <ele>1115.6</ele>
        <time>2019-11-11T15:16:54.000Z</time>
      </trkpt>
      <trkpt lat="44.59003" lon="4.21873">
        <ele>1111.8</ele>
        <time>2019-11-11T15:16:59.000Z</time>
      </trkpt>
      <trkpt lat="44.58987" lon="4.21878">
        <ele>1109</ele>
        <time>2019-11-11T15:17:03.000Z</time>
      </trkpt>
      <trkpt lat="44.58972" lon="4.21877">
        <ele>1106</ele>
        <time>2019-11-11T15:17:07.000Z</time>
      </trkpt>
      <trkpt lat="44.58952" lon="4.2188">
        <ele>1101</ele>
        <time>2019-11-11T15:17:13.000Z</time>
      </trkpt>
      <trkpt lat="44.58932" lon="4.21882">
        <ele>1097.4</ele>
        <time>2019-11-11T15:17:18.000Z</time>
      </trkpt>
      <trkpt lat="44.58913" lon="4.21887">
        <ele>1093.6</ele>
        <time>2019-11-11T15:17:23.000Z</time>
      </trkpt>
      <trkpt lat="44.5889" lon="4.21883">
        <ele>1092</ele>
        <time>2019-11-11T15:17:27.000Z</time>
      </trkpt>
      <trkpt lat="44.58872" lon="4.21879">
        <ele>1092.8</ele>
        <time>2019-11-11T15:17:30.000Z</time>
      </trkpt>
      <trkpt lat="44.58857" lon="4.21885">
        <ele>1097.8</ele>
        <time>2019-11-11T15:18:31.000Z</time>
      </trkpt>
      <trkpt lat="44.58844" lon="4.21903">
        <ele>1097.4</ele>
        <time>2019-11-11T15:18:38.000Z</time>
      </trkpt>
      <trkpt lat="44.58837" lon="4.21929">
        <ele>1096.2</ele>
        <time>2019-11-11T15:18:43.000Z</time>
      </trkpt>
      <trkpt lat="44.5883" lon="4.21954">
        <ele>1094.2</ele>
        <time>2019-11-11T15:18:47.000Z</time>
      </trkpt>
      <trkpt lat="44.58824" lon="4.21984">
        <ele>1091.4</ele>
        <time>2019-11-11T15:18:51.000Z</time>
      </trkpt>
      <trkpt lat="44.58822" lon="4.22016">
        <ele>1087.2</ele>
        <time>2019-11-11T15:18:55.000Z</time>
      </trkpt>
      <trkpt lat="44.5882" lon="4.22042">
        <ele>1084.8</ele>
        <time>2019-11-11T15:18:58.000Z</time>
      </trkpt>
      <trkpt lat="44.5882" lon="4.22068">
        <ele>1082.8</ele>
        <time>2019-11-11T15:19:01.000Z</time>
      </trkpt>
      <trkpt lat="44.5882" lon="4.22101">
        <ele>1079.8</ele>
        <time>2019-11-11T15:19:05.000Z</time>
      </trkpt>
      <trkpt lat="44.58824" lon="4.22133">
        <ele>1076.2</ele>
        <time>2019-11-11T15:19:09.000Z</time>
      </trkpt>
      <trkpt lat="44.58828" lon="4.2216">
        <ele>1072.4</ele>
        <time>2019-11-11T15:19:14.000Z</time>
      </trkpt>
      <trkpt lat="44.58834" lon="4.22184">
        <ele>1070</ele>
        <time>2019-11-11T15:19:18.000Z</time>
      </trkpt>
      <trkpt lat="44.58843" lon="4.22208">
        <ele>1066</ele>
        <time>2019-11-11T15:19:24.000Z</time>
      </trkpt>
      <trkpt lat="44.58852" lon="4.22224">
        <ele>1065</ele>
        <time>2019-11-11T15:19:27.000Z</time>
      </trkpt>
      <trkpt lat="44.58856" lon="4.22249">
        <ele>1062.2</ele>
        <time>2019-11-11T15:19:31.000Z</time>
      </trkpt>
      <trkpt lat="44.58859" lon="4.2227">
        <ele>1055</ele>
        <time>2019-11-11T15:19:49.000Z</time>
      </trkpt>
      <trkpt lat="44.58856" lon="4.22297">
        <ele>1052.6</ele>
        <time>2019-11-11T15:19:55.000Z</time>
      </trkpt>
      <trkpt lat="44.58855" lon="4.22323">
        <ele>1051.8</ele>
        <time>2019-11-11T15:20:02.000Z</time>
      </trkpt>
      <trkpt lat="44.5885" lon="4.22348">
        <ele>1048.8</ele>
        <time>2019-11-11T15:20:07.000Z</time>
      </trkpt>
      <trkpt lat="44.58843" lon="4.22374">
        <ele>1045</ele>
        <time>2019-11-11T15:20:12.000Z</time>
      </trkpt>
      <trkpt lat="44.58831" lon="4.22401">
        <ele>1041.2</ele>
        <time>2019-11-11T15:20:17.000Z</time>
      </trkpt>
      <trkpt lat="44.5882" lon="4.22423">
        <ele>1038.6</ele>
        <time>2019-11-11T15:20:21.000Z</time>
      </trkpt>
      <trkpt lat="44.58817" lon="4.2243">
        <ele>1037.8</ele>
        <time>2019-11-11T15:20:22.000Z</time>
      </trkpt>
      <trkpt lat="44.58804" lon="4.22451">
        <ele>1033.6</ele>
        <time>2019-11-11T15:20:28.000Z</time>
      </trkpt>
      <trkpt lat="44.5879" lon="4.22474">
        <ele>1030.4</ele>
        <time>2019-11-11T15:20:33.000Z</time>
      </trkpt>
      <trkpt lat="44.58782" lon="4.2249">
        <ele>1029.2</ele>
        <time>2019-11-11T15:20:36.000Z</time>
      </trkpt>
      <trkpt lat="44.58777" lon="4.22522">
        <ele>1025.8</ele>
        <time>2019-11-11T15:20:40.000Z</time>
      </trkpt>
      <trkpt lat="44.58772" lon="4.22551">
        <ele>1024.2</ele>
        <time>2019-11-11T15:20:44.000Z</time>
      </trkpt>
      <trkpt lat="44.58758" lon="4.2257">
        <ele>1023.6</ele>
        <time>2019-11-11T15:20:50.000Z</time>
      </trkpt>
      <trkpt lat="44.58746" lon="4.22592">
        <ele>1023.2</ele>
        <time>2019-11-11T15:20:57.000Z</time>
      </trkpt>
      <trkpt lat="44.58732" lon="4.22611">
        <ele>1021.2</ele>
        <time>2019-11-11T15:21:05.000Z</time>
      </trkpt>
      <trkpt lat="44.58722" lon="4.22636">
        <ele>1020</ele>
        <time>2019-11-11T15:21:09.000Z</time>
      </trkpt>
      <trkpt lat="44.58716" lon="4.22657">
        <ele>1019.2</ele>
        <time>2019-11-11T15:21:12.000Z</time>
      </trkpt>
      <trkpt lat="44.58714" lon="4.22684">
        <ele>1016.8</ele>
        <time>2019-11-11T15:21:17.000Z</time>
      </trkpt>
      <trkpt lat="44.58715" lon="4.22696">
        <ele>1014.6</ele>
        <time>2019-11-11T15:21:22.000Z</time>
      </trkpt>
      <trkpt lat="44.58705" lon="4.22718">
        <ele>1010.6</ele>
        <time>2019-11-11T15:21:30.000Z</time>
      </trkpt>
      <trkpt lat="44.58704" lon="4.22732">
        <ele>1008</ele>
        <time>2019-11-11T15:21:35.000Z</time>
      </trkpt>
      <trkpt lat="44.58709" lon="4.2274">
        <ele>1005.8</ele>
        <time>2019-11-11T15:21:41.000Z</time>
      </trkpt>
      <trkpt lat="44.58712" lon="4.22768">
        <ele>1000.6</ele>
        <time>2019-11-11T15:21:49.000Z</time>
      </trkpt>
      <trkpt lat="44.58717" lon="4.22796">
        <ele>994</ele>
        <time>2019-11-11T15:21:57.000Z</time>
      </trkpt>
      <trkpt lat="44.58728" lon="4.22816">
        <ele>989.4</ele>
        <time>2019-11-11T15:22:05.000Z</time>
      </trkpt>
      <trkpt lat="44.58733" lon="4.22832">
        <ele>986.4</ele>
        <time>2019-11-11T15:22:11.000Z</time>
      </trkpt>
      <trkpt lat="44.58729" lon="4.22839">
        <ele>982.8</ele>
        <time>2019-11-11T15:22:15.000Z</time>
      </trkpt>
      <trkpt lat="44.58728" lon="4.22866">
        <ele>973.4</ele>
        <time>2019-11-11T15:22:26.000Z</time>
      </trkpt>
      <trkpt lat="44.58729" lon="4.22877">
        <ele>970</ele>
        <time>2019-11-11T15:22:31.000Z</time>
      </trkpt>
      <trkpt lat="44.58727" lon="4.22887">
        <ele>963.8</ele>
        <time>2019-11-11T15:22:36.000Z</time>
      </trkpt>
      <trkpt lat="44.58725" lon="4.22913">
        <ele>958</ele>
        <time>2019-11-11T15:22:44.000Z</time>
      </trkpt>
      <trkpt lat="44.58723" lon="4.22939">
        <ele>952.6</ele>
        <time>2019-11-11T15:22:50.000Z</time>
      </trkpt>
      <trkpt lat="44.58726" lon="4.22965">
        <ele>949.4</ele>
        <time>2019-11-11T15:22:56.000Z</time>
      </trkpt>
      <trkpt lat="44.58721" lon="4.22992">
        <ele>944</ele>
        <time>2019-11-11T15:23:04.000Z</time>
      </trkpt>
      <trkpt lat="44.58718" lon="4.22998">
        <ele>943.8</ele>
        <time>2019-11-11T15:23:07.000Z</time>
      </trkpt>
      <trkpt lat="44.58706" lon="4.22995">
        <ele>942.8</ele>
        <time>2019-11-11T15:23:12.000Z</time>
      </trkpt>
      <trkpt lat="44.58693" lon="4.2298">
        <ele>939.6</ele>
        <time>2019-11-11T15:23:19.000Z</time>
      </trkpt>
      <trkpt lat="44.58683" lon="4.2296">
        <ele>937.4</ele>
        <time>2019-11-11T15:23:28.000Z</time>
      </trkpt>
      <trkpt lat="44.58668" lon="4.22943">
        <ele>934</ele>
        <time>2019-11-11T15:23:35.000Z</time>
      </trkpt>
      <trkpt lat="44.58652" lon="4.22927">
        <ele>930.8</ele>
        <time>2019-11-11T15:23:42.000Z</time>
      </trkpt>
      <trkpt lat="44.58636" lon="4.22915">
        <ele>926</ele>
        <time>2019-11-11T15:23:50.000Z</time>
      </trkpt>
      <trkpt lat="44.58617" lon="4.22906">
        <ele>920.6</ele>
        <time>2019-11-11T15:23:58.000Z</time>
      </trkpt>
      <trkpt lat="44.58599" lon="4.22903">
        <ele>916</ele>
        <time>2019-11-11T15:24:06.000Z</time>
      </trkpt>
      <trkpt lat="44.58581" lon="4.229">
        <ele>911</ele>
        <time>2019-11-11T15:24:15.000Z</time>
      </trkpt>
      <trkpt lat="44.58565" lon="4.22886">
        <ele>906.6</ele>
        <time>2019-11-11T15:24:23.000Z</time>
      </trkpt>
      <trkpt lat="44.58561" lon="4.22862">
        <ele>900.4</ele>
        <time>2019-11-11T15:24:50.000Z</time>
      </trkpt>
      <trkpt lat="44.58551" lon="4.22847">
        <ele>895</ele>
        <time>2019-11-11T15:25:06.000Z</time>
      </trkpt>
      <trkpt lat="44.58547" lon="4.22874">
        <ele>889.4</ele>
        <time>2019-11-11T15:25:15.000Z</time>
      </trkpt>
      <trkpt lat="44.58539" lon="4.22865">
        <ele>885.4</ele>
        <time>2019-11-11T15:25:38.000Z</time>
      </trkpt>
      <trkpt lat="44.58537" lon="4.22838">
        <ele>879.4</ele>
        <time>2019-11-11T15:25:46.000Z</time>
      </trkpt>
      <trkpt lat="44.58534" lon="4.2281">
        <ele>866.8</ele>
        <time>2019-11-11T15:25:56.000Z</time>
      </trkpt>
      <trkpt lat="44.58532" lon="4.22783">
        <ele>856</ele>
        <time>2019-11-11T15:26:08.000Z</time>
      </trkpt>
      <trkpt lat="44.58535" lon="4.22756">
        <ele>847</ele>
        <time>2019-11-11T15:26:15.000Z</time>
      </trkpt>
      <trkpt lat="44.58535" lon="4.22734">
        <ele>838.8</ele>
        <time>2019-11-11T15:26:22.000Z</time>
      </trkpt>
      <trkpt lat="44.58522" lon="4.22714">
        <ele>839.6</ele>
        <time>2019-11-11T15:26:28.000Z</time>
      </trkpt>
      <trkpt lat="44.58515" lon="4.22687">
        <ele>837.8</ele>
        <time>2019-11-11T15:26:35.000Z</time>
      </trkpt>
      <trkpt lat="44.58498" lon="4.22668">
        <ele>857.8</ele>
        <time>2019-11-11T15:26:50.000Z</time>
      </trkpt>
      <trkpt lat="44.58479" lon="4.22663">
        <ele>866</ele>
        <time>2019-11-11T15:27:05.000Z</time>
      </trkpt>
      <trkpt lat="44.5846" lon="4.22671">
        <ele>861</ele>
        <time>2019-11-11T15:27:12.000Z</time>
      </trkpt>
      <trkpt lat="44.58441" lon="4.22665">
        <ele>857.4</ele>
        <time>2019-11-11T15:27:37.000Z</time>
      </trkpt>
      <trkpt lat="44.58428" lon="4.22647">
        <ele>856.2</ele>
        <time>2019-11-11T15:27:45.000Z</time>
      </trkpt>
      <trkpt lat="44.58421" lon="4.22621">
        <ele>851.8</ele>
        <time>2019-11-11T15:27:51.000Z</time>
      </trkpt>
      <trkpt lat="44.58418" lon="4.22594">
        <ele>842.8</ele>
        <time>2019-11-11T15:28:00.000Z</time>
      </trkpt>
      <trkpt lat="44.58413" lon="4.22568">
        <ele>834</ele>
        <time>2019-11-11T15:28:08.000Z</time>
      </trkpt>
      <trkpt lat="44.58413" lon="4.22541">
        <ele>829</ele>
        <time>2019-11-11T15:28:15.000Z</time>
      </trkpt>
      <trkpt lat="44.58399" lon="4.22541">
        <ele>829.8</ele>
        <time>2019-11-11T15:28:51.000Z</time>
      </trkpt>
      <trkpt lat="44.58383" lon="4.22525">
        <ele>821.6</ele>
        <time>2019-11-11T15:29:00.000Z</time>
      </trkpt>
      <trkpt lat="44.58367" lon="4.2251">
        <ele>824.6</ele>
        <time>2019-11-11T15:30:01.000Z</time>
      </trkpt>
      <trkpt lat="44.58351" lon="4.22496">
        <ele>825</ele>
        <time>2019-11-11T15:30:09.000Z</time>
      </trkpt>
      <trkpt lat="44.58339" lon="4.22474">
        <ele>822</ele>
        <time>2019-11-11T15:30:18.000Z</time>
      </trkpt>
      <trkpt lat="44.58323" lon="4.22462">
        <ele>821.8</ele>
        <time>2019-11-11T15:30:25.000Z</time>
      </trkpt>
      <trkpt lat="44.58302" lon="4.22458">
        <ele>816.8</ele>
        <time>2019-11-11T15:30:34.000Z</time>
      </trkpt>
      <trkpt lat="44.58283" lon="4.22455">
        <ele>815</ele>
        <time>2019-11-11T15:30:41.000Z</time>
      </trkpt>
      <trkpt lat="44.58265" lon="4.22449">
        <ele>811.6</ele>
        <time>2019-11-11T15:30:47.000Z</time>
      </trkpt>
      <trkpt lat="44.58247" lon="4.22441">
        <ele>806.6</ele>
        <time>2019-11-11T15:30:53.000Z</time>
      </trkpt>
      <trkpt lat="44.58227" lon="4.22436">
        <ele>800</ele>
        <time>2019-11-11T15:30:59.000Z</time>
      </trkpt>
      <trkpt lat="44.58206" lon="4.22431">
        <ele>799.2</ele>
        <time>2019-11-11T15:31:04.000Z</time>
      </trkpt>
      <trkpt lat="44.58186" lon="4.22428">
        <ele>797.6</ele>
        <time>2019-11-11T15:31:11.000Z</time>
      </trkpt>
      <trkpt lat="44.58166" lon="4.22425">
        <ele>796</ele>
        <time>2019-11-11T15:31:18.000Z</time>
      </trkpt>
      <trkpt lat="44.58147" lon="4.22423">
        <ele>791.4</ele>
        <time>2019-11-11T15:31:24.000Z</time>
      </trkpt>
      <trkpt lat="44.58125" lon="4.22421">
        <ele>787.4</ele>
        <time>2019-11-11T15:31:29.000Z</time>
      </trkpt>
      <trkpt lat="44.58106" lon="4.22418">
        <ele>783</ele>
        <time>2019-11-11T15:31:34.000Z</time>
      </trkpt>
      <trkpt lat="44.58087" lon="4.2241">
        <ele>776.2</ele>
        <time>2019-11-11T15:31:40.000Z</time>
      </trkpt>
      <trkpt lat="44.5807" lon="4.22401">
        <ele>771.6</ele>
        <time>2019-11-11T15:31:46.000Z</time>
      </trkpt>
      <trkpt lat="44.5805" lon="4.22392">
        <ele>764.8</ele>
        <time>2019-11-11T15:31:52.000Z</time>
      </trkpt>
      <trkpt lat="44.5803" lon="4.22386">
        <ele>760</ele>
        <time>2019-11-11T15:31:58.000Z</time>
      </trkpt>
      <trkpt lat="44.58012" lon="4.22382">
        <ele>757.4</ele>
        <time>2019-11-11T15:32:05.000Z</time>
      </trkpt>
      <trkpt lat="44.57994" lon="4.22371">
        <ele>757.4</ele>
        <time>2019-11-11T15:32:13.000Z</time>
      </trkpt>
      <trkpt lat="44.57984" lon="4.2236">
        <ele>762</ele>
        <time>2019-11-11T15:32:20.000Z</time>
      </trkpt>
      <trkpt lat="44.57969" lon="4.22344">
        <ele>756.6</ele>
        <time>2019-11-11T15:32:29.000Z</time>
      </trkpt>
      <trkpt lat="44.57952" lon="4.22332">
        <ele>756.6</ele>
        <time>2019-11-11T15:32:45.000Z</time>
      </trkpt>
      <trkpt lat="44.57935" lon="4.22325">
        <ele>755.4</ele>
        <time>2019-11-11T15:33:07.000Z</time>
      </trkpt>
      <trkpt lat="44.57918" lon="4.22313">
        <ele>752.6</ele>
        <time>2019-11-11T15:33:14.000Z</time>
      </trkpt>
      <trkpt lat="44.57903" lon="4.22292">
        <ele>749.2</ele>
        <time>2019-11-11T15:33:20.000Z</time>
      </trkpt>
      <trkpt lat="44.5789" lon="4.22275">
        <ele>746.4</ele>
        <time>2019-11-11T15:33:26.000Z</time>
      </trkpt>
      <trkpt lat="44.57886" lon="4.22265">
        <ele>742</ele>
        <time>2019-11-11T15:33:29.000Z</time>
      </trkpt>
      <trkpt lat="44.57872" lon="4.22246">
        <ele>734.6</ele>
        <time>2019-11-11T15:33:36.000Z</time>
      </trkpt>
      <trkpt lat="44.57855" lon="4.22234">
        <ele>730</ele>
        <time>2019-11-11T15:33:42.000Z</time>
      </trkpt>
      <trkpt lat="44.5784" lon="4.22216">
        <ele>725.8</ele>
        <time>2019-11-11T15:33:48.000Z</time>
      </trkpt>
      <trkpt lat="44.57825" lon="4.222">
        <ele>719.6</ele>
        <time>2019-11-11T15:33:55.000Z</time>
      </trkpt>
      <trkpt lat="44.57808" lon="4.22193">
        <ele>712</ele>
        <time>2019-11-11T15:34:02.000Z</time>
      </trkpt>
      <trkpt lat="44.57794" lon="4.22193">
        <ele>705.8</ele>
        <time>2019-11-11T15:34:49.000Z</time>
      </trkpt>
      <trkpt lat="44.57776" lon="4.22184">
        <ele>699.4</ele>
        <time>2019-11-11T15:35:26.000Z</time>
      </trkpt>
      <trkpt lat="44.57764" lon="4.22202">
        <ele>694</ele>
        <time>2019-11-11T15:35:46.000Z</time>
      </trkpt>
      <trkpt lat="44.57747" lon="4.22216">
        <ele>686.4</ele>
        <time>2019-11-11T15:36:20.000Z</time>
      </trkpt>
      <trkpt lat="44.57744" lon="4.22215">
        <ele>685.8</ele>
        <time>2019-11-11T15:36:22.000Z</time>
      </trkpt>
      <trkpt lat="44.57729" lon="4.22223">
        <ele>679.8</ele>
        <time>2019-11-11T15:36:40.000Z</time>
      </trkpt>
      <trkpt lat="44.57727" lon="4.22227">
        <ele>679</ele>
        <time>2019-11-11T15:36:43.000Z</time>
      </trkpt>
      <trkpt lat="44.57722" lon="4.22235">
        <ele>676</ele>
        <time>2019-11-11T15:36:47.000Z</time>
      </trkpt>
      <trkpt lat="44.57707" lon="4.22252">
        <ele>669.8</ele>
        <time>2019-11-11T15:36:54.000Z</time>
      </trkpt>
      <trkpt lat="44.57695" lon="4.22272">
        <ele>660</ele>
        <time>2019-11-11T15:37:02.000Z</time>
      </trkpt>
      <trkpt lat="44.57695" lon="4.22296">
        <ele>651</ele>
        <time>2019-11-11T15:37:11.000Z</time>
      </trkpt>
      <trkpt lat="44.57681" lon="4.223">
        <ele>646.6</ele>
        <time>2019-11-11T15:37:59.000Z</time>
      </trkpt>
      <trkpt lat="44.57673" lon="4.22312">
        <ele>642.6</ele>
        <time>2019-11-11T15:39:20.000Z</time>
      </trkpt>
      <trkpt lat="44.57654" lon="4.22306">
        <ele>643.2</ele>
        <time>2019-11-11T15:39:59.000Z</time>
      </trkpt>
      <trkpt lat="44.57636" lon="4.22307">
        <ele>642.4</ele>
        <time>2019-11-11T15:40:04.000Z</time>
      </trkpt>
      <trkpt lat="44.57621" lon="4.2229">
        <ele>639.4</ele>
        <time>2019-11-11T15:40:10.000Z</time>
      </trkpt>
      <trkpt lat="44.57607" lon="4.22275">
        <ele>632.8</ele>
        <time>2019-11-11T15:40:21.000Z</time>
      </trkpt>
      <trkpt lat="44.57596" lon="4.22253">
        <ele>631</ele>
        <time>2019-11-11T15:40:32.000Z</time>
      </trkpt>
      <trkpt lat="44.5759" lon="4.22227">
        <ele>629.4</ele>
        <time>2019-11-11T15:40:37.000Z</time>
      </trkpt>
      <trkpt lat="44.57591" lon="4.222">
        <ele>627.6</ele>
        <time>2019-11-11T15:40:42.000Z</time>
      </trkpt>
      <trkpt lat="44.57589" lon="4.22173">
        <ele>624.4</ele>
        <time>2019-11-11T15:40:47.000Z</time>
      </trkpt>
      <trkpt lat="44.57585" lon="4.22146">
        <ele>619.4</ele>
        <time>2019-11-11T15:40:53.000Z</time>
      </trkpt>
      <trkpt lat="44.57579" lon="4.22119">
        <ele>610.6</ele>
        <time>2019-11-11T15:41:01.000Z</time>
      </trkpt>
      <trkpt lat="44.57571" lon="4.22097">
        <ele>605.4</ele>
        <time>2019-11-11T15:41:09.000Z</time>
      </trkpt>
      <trkpt lat="44.5756" lon="4.22073">
        <ele>604</ele>
        <time>2019-11-11T15:41:15.000Z</time>
      </trkpt>
      <trkpt lat="44.57559" lon="4.22045">
        <ele>599.6</ele>
        <time>2019-11-11T15:41:22.000Z</time>
      </trkpt>
      <trkpt lat="44.57561" lon="4.22031">
        <ele>589.2</ele>
        <time>2019-11-11T15:42:05.000Z</time>
      </trkpt>
      <trkpt lat="44.57554" lon="4.22031">
        <ele>589.6</ele>
        <time>2019-11-11T15:42:07.000Z</time>
      </trkpt>
      <trkpt lat="44.57541" lon="4.2203">
        <ele>589.8</ele>
        <time>2019-11-11T15:42:10.000Z</time>
      </trkpt>
      <trkpt lat="44.57531" lon="4.22056">
        <ele>587</ele>
        <time>2019-11-11T15:42:15.000Z</time>
      </trkpt>
      <trkpt lat="44.57529" lon="4.22073">
        <ele>585.4</ele>
        <time>2019-11-11T15:42:17.000Z</time>
      </trkpt>
      <trkpt lat="44.57521" lon="4.22102">
        <ele>582.8</ele>
        <time>2019-11-11T15:42:20.000Z</time>
      </trkpt>
      <trkpt lat="44.57512" lon="4.22134">
        <ele>581.6</ele>
        <time>2019-11-11T15:42:23.000Z</time>
      </trkpt>
      <trkpt lat="44.57507" lon="4.22162">
        <ele>579</ele>
        <time>2019-11-11T15:42:26.000Z</time>
      </trkpt>
      <trkpt lat="44.57509" lon="4.22188">
        <ele>573</ele>
        <time>2019-11-11T15:42:29.000Z</time>
      </trkpt>
      <trkpt lat="44.5751" lon="4.22197">
        <ele>571.2</ele>
        <time>2019-11-11T15:42:30.000Z</time>
      </trkpt>
      <trkpt lat="44.5751" lon="4.22207">
        <ele>570</ele>
        <time>2019-11-11T15:42:31.000Z</time>
      </trkpt>
      <trkpt lat="44.575" lon="4.22227">
        <ele>567.2</ele>
        <time>2019-11-11T15:42:34.000Z</time>
      </trkpt>
      <trkpt lat="44.57495" lon="4.22233">
        <ele>566.2</ele>
        <time>2019-11-11T15:42:35.000Z</time>
      </trkpt>
      <trkpt lat="44.57476" lon="4.22251">
        <ele>560.6</ele>
        <time>2019-11-11T15:42:38.000Z</time>
      </trkpt>
      <trkpt lat="44.57454" lon="4.2227">
        <ele>555.4</ele>
        <time>2019-11-11T15:42:41.000Z</time>
      </trkpt>
      <trkpt lat="44.57435" lon="4.22284">
        <ele>553.2</ele>
        <time>2019-11-11T15:42:44.000Z</time>
      </trkpt>
      <trkpt lat="44.57419" lon="4.22302">
        <ele>549.4</ele>
        <time>2019-11-11T15:42:47.000Z</time>
      </trkpt>
      <trkpt lat="44.57403" lon="4.22316">
        <ele>542.6</ele>
        <time>2019-11-11T15:42:50.000Z</time>
      </trkpt>
      <trkpt lat="44.57398" lon="4.2232">
        <ele>541</ele>
        <time>2019-11-11T15:42:51.000Z</time>
      </trkpt>
      <trkpt lat="44.5738" lon="4.22316">
        <ele>539.8</ele>
        <time>2019-11-11T15:42:55.000Z</time>
      </trkpt>
      <trkpt lat="44.57372" lon="4.22297">
        <ele>538.8</ele>
        <time>2019-11-11T15:42:58.000Z</time>
      </trkpt>
      <trkpt lat="44.57365" lon="4.22288">
        <ele>539.2</ele>
        <time>2019-11-11T15:43:00.000Z</time>
      </trkpt>
      <trkpt lat="44.57347" lon="4.2229">
        <ele>538.6</ele>
        <time>2019-11-11T15:43:04.000Z</time>
      </trkpt>
      <trkpt lat="44.57334" lon="4.22303">
        <ele>536.4</ele>
        <time>2019-11-11T15:43:08.000Z</time>
      </trkpt>
      <trkpt lat="44.57319" lon="4.22321">
        <ele>534.4</ele>
        <time>2019-11-11T15:43:14.000Z</time>
      </trkpt>
      <trkpt lat="44.57306" lon="4.22338">
        <ele>538.6</ele>
        <time>2019-11-11T15:43:19.000Z</time>
      </trkpt>
      <trkpt lat="44.57288" lon="4.22346">
        <ele>541.2</ele>
        <time>2019-11-11T15:43:24.000Z</time>
      </trkpt>
      <trkpt lat="44.57269" lon="4.22337">
        <ele>543.4</ele>
        <time>2019-11-11T15:43:30.000Z</time>
      </trkpt>
      <trkpt lat="44.5725" lon="4.2233">
        <ele>542.6</ele>
        <time>2019-11-11T15:43:35.000Z</time>
      </trkpt>
      <trkpt lat="44.57229" lon="4.22325">
        <ele>542.6</ele>
        <time>2019-11-11T15:43:40.000Z</time>
      </trkpt>
      <trkpt lat="44.57209" lon="4.22318">
        <ele>544.2</ele>
        <time>2019-11-11T15:43:45.000Z</time>
      </trkpt>
      <trkpt lat="44.57191" lon="4.2231">
        <ele>546.4</ele>
        <time>2019-11-11T15:43:50.000Z</time>
      </trkpt>
      <trkpt lat="44.57174" lon="4.223">
        <ele>548.6</ele>
        <time>2019-11-11T15:43:54.000Z</time>
      </trkpt>
      <trkpt lat="44.57157" lon="4.22289">
        <ele>549.4</ele>
        <time>2019-11-11T15:43:58.000Z</time>
      </trkpt>
      <trkpt lat="44.5714" lon="4.22276">
        <ele>550.2</ele>
        <time>2019-11-11T15:44:02.000Z</time>
      </trkpt>
      <trkpt lat="44.5713" lon="4.22263">
        <ele>555.4</ele>
        <time>2019-11-11T15:44:05.000Z</time>
      </trkpt>
      <trkpt lat="44.57126" lon="4.22237">
        <ele>564</ele>
        <time>2019-11-11T15:44:10.000Z</time>
      </trkpt>
      <trkpt lat="44.57125" lon="4.22223">
        <ele>568.8</ele>
        <time>2019-11-11T15:44:14.000Z</time>
      </trkpt>
      <trkpt lat="44.57124" lon="4.22196">
        <ele>575.6</ele>
        <time>2019-11-11T15:44:20.000Z</time>
      </trkpt>
      <trkpt lat="44.5712" lon="4.22167">
        <ele>577.4</ele>
        <time>2019-11-11T15:44:25.000Z</time>
      </trkpt>
      <trkpt lat="44.57112" lon="4.22139">
        <ele>585.2</ele>
        <time>2019-11-11T15:44:30.000Z</time>
      </trkpt>
      <trkpt lat="44.57105" lon="4.22116">
        <ele>589.8</ele>
        <time>2019-11-11T15:44:34.000Z</time>
      </trkpt>
      <trkpt lat="44.57097" lon="4.22085">
        <ele>592.6</ele>
        <time>2019-11-11T15:44:38.000Z</time>
      </trkpt>
      <trkpt lat="44.57088" lon="4.22056">
        <ele>593.6</ele>
        <time>2019-11-11T15:44:41.000Z</time>
      </trkpt>
      <trkpt lat="44.57085" lon="4.22046">
        <ele>596.2</ele>
        <time>2019-11-11T15:44:42.000Z</time>
      </trkpt>
      <trkpt lat="44.57083" lon="4.22013">
        <ele>593.4</ele>
        <time>2019-11-11T15:44:45.000Z</time>
      </trkpt>
      <trkpt lat="44.57084" lon="4.22001">
        <ele>589.2</ele>
        <time>2019-11-11T15:44:46.000Z</time>
      </trkpt>
      <trkpt lat="44.57084" lon="4.21974">
        <ele>578.6</ele>
        <time>2019-11-11T15:44:48.000Z</time>
      </trkpt>
      <trkpt lat="44.57085" lon="4.21939">
        <ele>571.4</ele>
        <time>2019-11-11T15:44:51.000Z</time>
      </trkpt>
      <trkpt lat="44.57078" lon="4.21902">
        <ele>570.6</ele>
        <time>2019-11-11T15:44:54.000Z</time>
      </trkpt>
      <trkpt lat="44.57073" lon="4.21867">
        <ele>567.8</ele>
        <time>2019-11-11T15:44:57.000Z</time>
      </trkpt>
      <trkpt lat="44.57068" lon="4.21839">
        <ele>562.2</ele>
        <time>2019-11-11T15:45:00.000Z</time>
      </trkpt>
      <trkpt lat="44.57074" lon="4.21824">
        <ele>546.2</ele>
        <time>2019-11-11T15:45:03.000Z</time>
      </trkpt>
      <trkpt lat="44.57065" lon="4.21798">
        <ele>542</ele>
        <time>2019-11-11T15:45:07.000Z</time>
      </trkpt>
      <trkpt lat="44.5705" lon="4.21772">
        <ele>540.2</ele>
        <time>2019-11-11T15:45:11.000Z</time>
      </trkpt>
      <trkpt lat="44.57038" lon="4.21747">
        <ele>539.2</ele>
        <time>2019-11-11T15:45:15.000Z</time>
      </trkpt>
      <trkpt lat="44.5703" lon="4.21719">
        <ele>534.4</ele>
        <time>2019-11-11T15:45:20.000Z</time>
      </trkpt>
      <trkpt lat="44.57023" lon="4.21692">
        <ele>528.6</ele>
        <time>2019-11-11T15:45:24.000Z</time>
      </trkpt>
      <trkpt lat="44.57016" lon="4.21671">
        <ele>525.8</ele>
        <time>2019-11-11T15:45:33.000Z</time>
      </trkpt>
      <trkpt lat="44.57023" lon="4.21661">
        <ele>528.6</ele>
        <time>2019-11-11T15:46:49.000Z</time>
      </trkpt>
      <trkpt lat="44.5702" lon="4.2166">
        <ele>523.2</ele>
        <time>2019-11-11T15:49:30.000Z</time>
      </trkpt>
      <trkpt lat="44.57022" lon="4.21665">
        <ele>518.2</ele>
        <time>2019-11-11T15:53:10.000Z</time>
      </trkpt>
      <trkpt lat="44.57008" lon="4.21664">
        <ele>518.4</ele>
        <time>2019-11-11T15:54:50.000Z</time>
      </trkpt>
      <trkpt lat="44.56993" lon="4.21674">
        <ele>514</ele>
        <time>2019-11-11T15:55:04.000Z</time>
      </trkpt>
      <trkpt lat="44.56988" lon="4.21672">
        <ele>515.2</ele>
        <time>2019-11-11T15:56:51.000Z</time>
      </trkpt>
      <trkpt lat="44.56989" lon="4.21672">
        <ele>515</ele>
        <time>2019-11-11T15:56:53.000Z</time>
      </trkpt>
    </trkseg>
  </trk>
</gpx>